Time,TemperatureF,DewpointF,PressureIn,WindDirection,WindDirectionDegrees,WindSpeedMPH,WindSpeedGustMPH,Humidity,HourlyPrecipIn,Conditions,Clouds,dailyrainin,SoftwareType,DateUTC
2013-03-02 00:00:00,-10.7,-16.1,30.05,East,80,0.0,1.0,76,0.00,,---,0.00,VWS V14.01,2013-03-02 09:00:00,
2013-03-02 00:01:00,-10.8,-16.2,30.05,East,80,0.0,1.0,76,0.00,,---,0.00,VWS V14.01,2013-03-02 09:01:00,
2013-03-02 00:02:00,-10.9,-16.4,30.05,East,80,0.0,0.0,76,0.00,,---,0.00,VWS V14.01,2013-03-02 09:02:00,
2013-03-02 00:06:00,-11.3,-16.7,30.05,East,80,0.0,0.0,76,0.00,,---,0.00,VWS V14.01,2013-03-02 09:06:00,
2013-03-02 00:07:00,-11.5,-16.9,30.05,East,80,0.0,0.0,76,0.00,,---,0.00,VWS V14.01,2013-03-02 09:07:00,
2013-03-02 00:11:00,-11.9,-17.3,30.05,East,80,0.0,0.0,76,0.00,,---,0.00,VWS V14.01,2013-03-02 09:11:00,
2013-03-02 00:12:00,-12.0,-17.4,30.05,East,80,0.0,0.0,76,0.00,,---,0.00,VWS V14.01,2013-03-02 09:12:00,
2013-03-02 00:16:00,-12.7,-18.1,30.05,East,80,0.0,0.0,76,0.00,,---,0.00,VWS V14.01,2013-03-02 09:16:00,
2013-03-02 00:17:00,-12.7,-18.1,30.05,East,80,0.0,0.0,76,0.00,,---,0.00,VWS V14.01,2013-03-02 09:17:00,
2013-03-02 00:22:00,-13.4,-18.5,30.05,East,80,0.0,0.0,77,0.00,,---,0.00,VWS V14.01,2013-03-02 09:22:00,
2013-03-02 00:23:00,-13.4,-18.5,30.05,East,80,0.0,0.0,77,0.00,,---,0.00,VWS V14.01,2013-03-02 09:23:00,
2013-03-02 00:27:00,-13.7,-18.6,30.05,East,80,0.0,0.0,78,0.00,,---,0.00,VWS V14.01,2013-03-02 09:27:00,
2013-03-02 00:28:00,-13.8,-18.7,30.05,East,80,0.0,0.0,78,0.00,,---,0.00,VWS V14.01,2013-03-02 09:28:00,
2013-03-02 00:32:00,-13.8,-18.4,30.05,East,80,0.0,0.0,79,0.00,,---,0.00,VWS V14.01,2013-03-02 09:32:00,
2013-03-02 00:33:00,-13.7,-18.3,30.05,East,80,0.0,0.0,79,0.00,,---,0.00,VWS V14.01,2013-03-02 09:33:00,
2013-03-02 00:37:00,-13.5,-17.9,30.05,East,80,0.0,0.0,80,0.00,,---,0.00,VWS V14.01,2013-03-02 09:37:00,
2013-03-02 00:38:00,-13.5,-17.9,30.05,East,80,0.0,0.0,80,0.00,,---,0.00,VWS V14.01,2013-03-02 09:38:00,
2013-03-02 00:42:00,-13.9,-18.5,30.05,East,80,0.0,0.0,79,0.00,,---,0.00,VWS V14.01,2013-03-02 09:42:00,
2013-03-02 00:43:00,-14.0,-18.6,30.05,East,80,0.0,0.0,79,0.00,,---,0.00,VWS V14.01,2013-03-02 09:43:00,
2013-03-02 00:47:00,-14.3,-19.2,30.05,East,80,0.0,0.0,78,0.00,,---,0.00,VWS V14.01,2013-03-02 09:47:00,
2013-03-02 00:48:00,-14.4,-19.2,30.05,East,80,0.0,0.0,78,0.00,,---,0.00,VWS V14.01,2013-03-02 09:48:00,
2013-03-02 00:52:00,-14.5,-19.1,30.04,East,80,0.0,0.0,79,0.00,,---,0.00,VWS V14.01,2013-03-02 09:52:00,
2013-03-02 00:53:00,-14.6,-19.2,30.05,East,80,1.0,1.0,79,0.00,,---,0.00,VWS V14.01,2013-03-02 09:53:00,
2013-03-02 00:57:00,-14.5,-18.9,30.05,East,80,0.0,0.0,80,0.00,,---,0.00,VWS V14.01,2013-03-02 09:57:00,
2013-03-02 00:58:00,-14.5,-18.9,30.05,East,80,0.0,0.0,80,0.00,,---,0.00,VWS V14.01,2013-03-02 09:58:00,
2013-03-02 00:59:00,-14.5,-18.9,30.04,East,80,0.0,0.0,80,0.00,,---,0.00,VWS V14.01,2013-03-02 09:59:00,
2013-03-02 01:02:00,-14.5,-18.9,30.05,East,80,0.0,0.0,80,0.00,,---,0.00,VWS V14.01,2013-03-02 10:02:00,
2013-03-02 01:03:00,-14.5,-18.9,30.05,East,80,0.0,0.0,80,0.00,,---,0.00,VWS V14.01,2013-03-02 10:03:00,
2013-03-02 01:04:00,-14.5,-18.9,30.04,East,80,0.0,0.0,80,0.00,,---,0.00,VWS V14.01,2013-03-02 10:04:00,
2013-03-02 01:08:00,-14.7,-19.1,30.05,East,80,0.0,0.0,80,0.00,,---,0.00,VWS V14.01,2013-03-02 10:08:00,
2013-03-02 01:09:00,-14.8,-19.2,30.04,East,80,0.0,0.0,80,0.00,,---,0.00,VWS V14.01,2013-03-02 10:09:00,
2013-03-02 01:13:00,-15.0,-19.4,30.05,East,80,0.0,0.0,80,0.00,,---,0.00,VWS V14.01,2013-03-02 10:13:00,
2013-03-02 01:14:00,-15.0,-19.4,30.05,East,80,0.0,0.0,80,0.00,,---,0.00,VWS V14.01,2013-03-02 10:14:00,
2013-03-02 01:15:00,-15.1,-19.5,30.05,East,80,0.0,0.0,80,0.00,,---,0.00,VWS V14.01,2013-03-02 10:15:00,
2013-03-02 01:18:00,-15.1,-19.5,30.05,East,80,0.0,0.0,80,0.00,,---,0.00,VWS V14.01,2013-03-02 10:18:00,
2013-03-02 01:19:00,-15.1,-19.5,30.05,East,80,0.0,0.0,80,0.00,,---,0.00,VWS V14.01,2013-03-02 10:19:00,
2013-03-02 01:20:00,-15.1,-19.5,30.04,East,80,0.0,0.0,80,0.00,,---,0.00,VWS V14.01,2013-03-02 10:20:00,
2013-03-02 01:23:00,-15.3,-19.6,30.04,East,80,0.0,0.0,80,0.00,,---,0.00,VWS V14.01,2013-03-02 10:23:00,
2013-03-02 01:24:00,-15.3,-19.6,30.04,East,80,0.0,0.0,80,0.00,,---,0.00,VWS V14.01,2013-03-02 10:24:00,
2013-03-02 01:25:00,-15.3,-19.6,30.04,East,80,0.0,0.0,80,0.00,,---,0.00,VWS V14.01,2013-03-02 10:25:00,
2013-03-02 01:28:00,-15.4,-19.7,30.04,East,80,0.0,0.0,80,0.00,,---,0.00,VWS V14.01,2013-03-02 10:28:00,
2013-03-02 01:30:00,-15.5,-19.8,30.04,East,80,0.0,0.0,80,0.00,,---,0.00,VWS V14.01,2013-03-02 10:30:00,
2013-03-02 01:31:00,-15.6,-19.9,30.04,East,80,0.0,0.0,80,0.00,,---,0.00,VWS V14.01,2013-03-02 10:31:00,
2013-03-02 01:33:00,-15.4,-19.5,30.04,East,80,0.0,0.0,81,0.00,,---,0.00,VWS V14.01,2013-03-02 10:33:00,
2013-03-02 01:35:00,-15.3,-19.4,30.04,East,80,0.0,0.0,81,0.00,,---,0.00,VWS V14.01,2013-03-02 10:35:00,
2013-03-02 01:36:00,-15.2,-19.3,30.04,East,80,0.0,0.0,81,0.00,,---,0.00,VWS V14.01,2013-03-02 10:36:00,
2013-03-02 01:40:00,-14.8,-18.7,30.04,East,80,0.0,0.0,82,0.00,,---,0.00,VWS V14.01,2013-03-02 10:40:00,
2013-03-02 01:41:00,-14.7,-18.6,30.04,East,80,1.0,1.0,82,0.00,,---,0.00,VWS V14.01,2013-03-02 10:41:00,
2013-03-02 01:42:00,-14.6,-18.5,30.04,East,80,0.0,0.0,82,0.00,,---,0.00,VWS V14.01,2013-03-02 10:42:00,
2013-03-02 01:45:00,-14.4,-18.3,30.04,East,80,0.0,0.0,82,0.00,,---,0.00,VWS V14.01,2013-03-02 10:45:00,
2013-03-02 01:46:00,-14.3,-18.0,30.04,East,80,0.0,0.0,83,0.00,,---,0.00,VWS V14.01,2013-03-02 10:46:00,
2013-03-02 01:47:00,-14.2,-17.9,30.04,East,80,0.0,0.0,83,0.00,,---,0.00,VWS V14.01,2013-03-02 10:47:00,
2013-03-02 01:50:00,-11.3,-16.7,30.03,NNW,338,2.0,3.0,76,0.00,,---,0.00,VWS V14.01,2013-03-02 10:50:00,
2013-03-02 01:51:00,-11.2,-16.6,30.03,NW,313,0.0,3.0,76,0.00,,---,0.00,VWS V14.01,2013-03-02 10:51:00,
2013-03-02 01:52:00,-11.2,-16.6,30.04,NNW,337,1.0,2.0,76,0.00,,---,0.00,VWS V14.01,2013-03-02 10:52:00,
2013-03-02 01:55:00,-11.1,-17.1,30.03,NNE,24,0.0,2.0,74,0.00,,---,0.00,VWS V14.01,2013-03-02 10:55:00,
2013-03-02 01:56:00,-11.3,-17.3,30.03,NNE,13,2.0,2.0,74,0.00,,---,0.00,VWS V14.01,2013-03-02 10:56:00,
2013-03-02 01:57:00,-11.5,-17.7,30.03,NNW,340,2.0,2.0,73,0.00,,---,0.00,VWS V14.01,2013-03-02 10:57:00,
2013-03-02 02:00:00,-12.8,-19.0,30.03,East,80,0.0,3.0,73,0.00,,---,0.00,VWS V14.01,2013-03-02 11:00:00,
2013-03-02 02:01:00,-12.7,-16.4,30.03,East,80,0.0,3.0,83,0.00,,---,0.00,VWS V14.01,2013-03-02 11:01:00,
2013-03-02 02:02:00,-12.7,-16.4,30.03,East,80,0.0,0.0,83,0.00,,---,0.00,VWS V14.01,2013-03-02 11:02:00,
2013-03-02 02:05:00,-12.6,-16.5,30.03,East,80,0.0,2.0,82,0.00,,---,0.00,VWS V14.01,2013-03-02 11:05:00,
2013-03-02 02:06:00,-12.6,-16.5,30.03,East,80,0.0,2.0,82,0.00,,---,0.00,VWS V14.01,2013-03-02 11:06:00,
2013-03-02 02:07:00,-12.6,-16.5,30.03,East,80,0.0,0.0,82,0.00,,---,0.00,VWS V14.01,2013-03-02 11:07:00,
2013-03-02 02:08:00,-12.6,-16.5,30.03,East,80,0.0,0.0,82,0.00,,---,0.00,VWS V14.01,2013-03-02 11:08:00,
2013-03-02 02:10:00,-12.7,-16.9,30.03,East,80,0.0,0.0,81,0.00,,---,0.00,VWS V14.01,2013-03-02 11:10:00,
2013-03-02 02:11:00,-12.7,-16.9,30.03,East,80,0.0,0.0,81,0.00,,---,0.00,VWS V14.01,2013-03-02 11:11:00,
2013-03-02 02:12:00,-12.7,-16.9,30.03,East,80,0.0,0.0,81,0.00,,---,0.00,VWS V14.01,2013-03-02 11:12:00,
2013-03-02 02:13:00,-12.8,-17.0,30.03,East,80,0.0,0.0,81,0.00,,---,0.00,VWS V14.01,2013-03-02 11:13:00,
2013-03-02 02:15:00,-12.8,-17.0,30.03,East,80,0.0,0.0,81,0.00,,---,0.00,VWS V14.01,2013-03-02 11:15:00,
2013-03-02 02:16:00,-12.7,-16.9,30.03,East,80,1.0,2.0,81,0.00,,---,0.00,VWS V14.01,2013-03-02 11:16:00,
2013-03-02 02:17:00,-12.7,-16.6,30.03,East,80,1.0,2.0,82,0.00,,---,0.00,VWS V14.01,2013-03-02 11:17:00,
2013-03-02 02:19:00,-12.4,-16.3,30.03,East,80,1.0,3.0,82,0.00,,---,0.00,VWS V14.01,2013-03-02 11:19:00,
2013-03-02 02:20:00,-12.0,-15.9,30.03,East,80,2.0,3.0,82,0.00,,---,0.00,VWS V14.01,2013-03-02 11:20:00,
2013-03-02 02:21:00,-11.7,-15.4,30.03,East,80,2.0,3.0,83,0.00,,---,0.00,VWS V14.01,2013-03-02 11:21:00,
2013-03-02 02:22:00,-11.5,-15.2,30.03,East,80,2.0,3.0,83,0.00,,---,0.00,VWS V14.01,2013-03-02 11:22:00,
2013-03-02 02:24:00,-10.6,-14.3,30.03,East,80,2.0,3.0,83,0.00,,---,0.00,VWS V14.01,2013-03-02 11:24:00,
2013-03-02 02:25:00,-10.1,-13.6,30.03,East,80,0.0,3.0,84,0.00,,---,0.00,VWS V14.01,2013-03-02 11:25:00,
2013-03-02 02:27:00,-9.6,-13.1,30.03,East,80,2.0,3.0,84,0.00,,---,0.00,VWS V14.01,2013-03-02 11:27:00,
2013-03-02 02:29:00,-9.2,-13.2,30.03,East,80,1.0,2.0,82,0.00,,---,0.00,VWS V14.01,2013-03-02 11:29:00,
2013-03-02 02:31:00,-8.8,-12.8,30.03,East,80,1.0,3.0,82,0.00,,---,0.00,VWS V14.01,2013-03-02 11:31:00,
2013-03-02 02:32:00,-8.6,-12.6,30.03,East,80,2.0,2.0,82,0.00,,---,0.00,VWS V14.01,2013-03-02 11:32:00,
2013-03-02 02:34:00,-7.6,-11.6,30.03,East,80,2.0,4.0,82,0.00,,---,0.00,VWS V14.01,2013-03-02 11:34:00,
2013-03-02 02:36:00,-7.1,-11.4,30.03,East,81,3.0,4.0,81,0.00,,---,0.00,VWS V14.01,2013-03-02 11:36:00,
2013-03-02 02:37:00,-6.8,-11.3,30.03,East,80,4.0,5.0,80,0.00,,---,0.00,VWS V14.01,2013-03-02 11:37:00,
2013-03-02 02:40:00,-6.1,-10.9,30.03,East,80,2.0,5.0,79,0.00,,---,0.00,VWS V14.01,2013-03-02 11:40:00,
2013-03-02 02:41:00,-5.7,-10.8,30.03,East,80,3.0,5.0,78,0.00,,---,0.00,VWS V14.01,2013-03-02 11:41:00,
2013-03-02 02:42:00,-5.6,-10.7,30.03,East,80,1.0,3.0,78,0.00,,---,0.00,VWS V14.01,2013-03-02 11:42:00,
2013-03-02 02:43:00,-5.3,-10.4,30.03,East,80,3.0,3.0,78,0.00,,---,0.00,VWS V14.01,2013-03-02 11:43:00,
2013-03-02 02:46:00,-4.5,-9.6,30.03,East,80,1.0,3.0,78,0.00,,---,0.00,VWS V14.01,2013-03-02 11:46:00,
2013-03-02 02:47:00,-4.4,-9.5,30.03,East,80,0.0,3.0,78,0.00,,---,0.00,VWS V14.01,2013-03-02 11:47:00,
2013-03-02 02:48:00,-4.3,-9.7,30.03,East,80,0.0,1.0,77,0.00,,---,0.00,VWS V14.01,2013-03-02 11:48:00,
2013-03-02 02:51:00,-4.4,-10.3,30.03,East,80,0.0,1.0,75,0.00,,---,0.00,VWS V14.01,2013-03-02 11:51:00,
2013-03-02 02:52:00,-4.5,-10.4,30.03,East,80,1.0,1.0,75,0.00,,---,0.00,VWS V14.01,2013-03-02 11:52:00,
2013-03-02 02:53:00,-4.8,-11.0,30.03,East,80,0.0,2.0,74,0.00,,---,0.00,VWS V14.01,2013-03-02 11:53:00,
2013-03-02 02:56:00,-5.0,-11.4,30.03,East,80,0.0,2.0,73,0.00,,---,0.00,VWS V14.01,2013-03-02 11:56:00,
2013-03-02 02:57:00,-5.2,-11.6,30.03,East,80,0.0,1.0,73,0.00,,---,0.00,VWS V14.01,2013-03-02 11:57:00,
2013-03-02 02:58:00,-5.3,-11.7,30.03,East,80,1.0,2.0,73,0.00,,---,0.00,VWS V14.01,2013-03-02 11:58:00,
2013-03-02 03:01:00,-5.5,-12.2,30.03,East,80,1.0,2.0,72,0.00,,---,0.00,VWS V14.01,2013-03-02 12:01:00,
2013-03-02 03:02:00,-5.5,-12.2,30.03,East,80,0.0,0.0,72,0.00,,---,0.00,VWS V14.01,2013-03-02 12:02:00,
2013-03-02 03:03:00,-5.6,-12.0,30.03,East,80,0.0,0.0,73,0.00,,---,0.00,VWS V14.01,2013-03-02 12:03:00,
2013-03-02 03:07:00,-5.9,-12.3,30.03,East,80,3.0,3.0,73,0.00,,---,0.00,VWS V14.01,2013-03-02 12:07:00,
2013-03-02 03:09:00,-6.0,-12.4,30.03,East,80,2.0,4.0,73,0.00,,---,0.00,VWS V14.01,2013-03-02 12:09:00,
2013-03-02 03:12:00,-5.3,-11.4,30.03,East,80,2.0,2.0,74,0.00,,---,0.00,VWS V14.01,2013-03-02 12:12:00,
2013-03-02 03:14:00,-4.8,-10.7,30.03,East,80,0.0,2.0,75,0.00,,---,0.00,VWS V14.01,2013-03-02 12:14:00,
2013-03-02 03:17:00,-4.2,-10.4,30.03,East,80,2.0,2.0,74,0.00,,---,0.00,VWS V14.01,2013-03-02 12:17:00,
2013-03-02 03:18:00,-4.1,-10.3,30.02,East,80,3.0,3.0,74,0.00,,---,0.00,VWS V14.01,2013-03-02 12:18:00,
2013-03-02 03:19:00,-3.9,-10.1,30.02,East,80,2.0,3.0,74,0.00,,---,0.00,VWS V14.01,2013-03-02 12:19:00,
2013-03-02 03:22:00,-3.6,-10.4,30.02,East,80,2.0,3.0,72,0.00,,---,0.00,VWS V14.01,2013-03-02 12:22:00,
2013-03-02 03:23:00,-3.6,-10.4,30.02,East,80,1.0,3.0,72,0.00,,---,0.00,VWS V14.01,2013-03-02 12:23:00,
2013-03-02 03:24:00,-3.4,-10.4,30.02,East,80,3.0,3.0,71,0.00,,---,0.00,VWS V14.01,2013-03-02 12:24:00,
2013-03-02 03:27:00,-3.1,-10.1,30.02,East,80,1.0,2.0,71,0.00,,---,0.00,VWS V14.01,2013-03-02 12:27:00,
2013-03-02 03:28:00,-3.1,-10.1,30.02,East,80,2.0,2.0,71,0.00,,---,0.00,VWS V14.01,2013-03-02 12:28:00,
2013-03-02 03:29:00,-2.9,-10.2,30.02,East,80,0.0,3.0,70,0.00,,---,0.00,VWS V14.01,2013-03-02 12:29:00,
2013-03-02 03:33:00,-3.1,-10.7,30.02,East,80,2.0,3.0,69,0.00,,---,0.00,VWS V14.01,2013-03-02 12:33:00,
2013-03-02 03:34:00,-3.5,-11.1,30.02,East,80,2.0,3.0,69,0.00,,---,0.00,VWS V14.01,2013-03-02 12:34:00,
2013-03-02 03:38:00,-4.0,-11.6,30.02,East,80,2.0,3.0,69,0.00,,---,0.00,VWS V14.01,2013-03-02 12:38:00,
2013-03-02 03:40:00,-4.1,-11.7,30.02,East,80,0.0,3.0,69,0.00,,---,0.00,VWS V14.01,2013-03-02 12:40:00,
2013-03-02 03:43:00,-4.3,-11.9,30.02,East,80,0.0,0.0,69,0.00,,---,0.00,VWS V14.01,2013-03-02 12:43:00,
2013-03-02 03:44:00,-4.3,-11.9,30.02,East,80,0.0,0.0,69,0.00,,---,0.00,VWS V14.01,2013-03-02 12:44:00,
2013-03-02 03:45:00,-4.4,-12.0,30.02,East,80,0.0,0.0,69,0.00,,---,0.00,VWS V14.01,2013-03-02 12:45:00,
2013-03-02 03:48:00,-4.9,-12.4,30.03,East,80,0.0,0.0,69,0.00,,---,0.00,VWS V14.01,2013-03-02 12:48:00,
2013-03-02 03:49:00,-4.9,-12.4,30.03,East,80,0.0,0.0,69,0.00,,---,0.00,VWS V14.01,2013-03-02 12:49:00,
2013-03-02 03:50:00,-5.3,-12.8,30.02,East,80,0.0,0.0,69,0.00,,---,0.00,VWS V14.01,2013-03-02 12:50:00,
2013-03-02 03:53:00,-5.8,-13.3,30.02,East,80,0.0,0.0,69,0.00,,---,0.00,VWS V14.01,2013-03-02 12:53:00,
2013-03-02 03:54:00,-5.8,-13.3,30.02,East,80,0.0,0.0,69,0.00,,---,0.00,VWS V14.01,2013-03-02 12:54:00,
2013-03-02 03:55:00,-6.1,-13.3,30.02,East,80,0.0,0.0,70,0.00,,---,0.00,VWS V14.01,2013-03-02 12:55:00,
2013-03-02 03:58:00,-6.8,-14.3,30.02,East,80,0.0,0.0,69,0.00,,---,0.00,VWS V14.01,2013-03-02 12:58:00,
2013-03-02 03:59:00,-6.9,-14.4,30.03,East,80,0.0,0.0,69,0.00,,---,0.00,VWS V14.01,2013-03-02 12:59:00,
2013-03-02 04:00:00,-7.2,-14.4,30.03,East,80,0.0,0.0,70,0.00,,---,0.00,VWS V14.01,2013-03-02 13:00:00,
2013-03-02 04:04:00,-7.7,-14.9,30.02,East,80,0.0,0.0,70,0.00,,---,0.00,VWS V14.01,2013-03-02 13:04:00,
2013-03-02 04:05:00,-7.8,-14.7,30.03,East,80,0.0,0.0,71,0.00,,---,0.00,VWS V14.01,2013-03-02 13:05:00,
2013-03-02 04:06:00,-7.9,-14.8,30.02,East,80,0.0,0.0,71,0.00,,---,0.00,VWS V14.01,2013-03-02 13:06:00,
2013-03-02 04:09:00,-8.2,-14.8,30.02,East,80,0.0,0.0,72,0.00,,---,0.00,VWS V14.01,2013-03-02 13:09:00,
2013-03-02 04:10:00,-8.2,-14.8,30.02,East,80,0.0,0.0,72,0.00,,---,0.00,VWS V14.01,2013-03-02 13:10:00,
2013-03-02 04:14:00,-8.5,-15.1,30.02,East,80,0.0,0.0,72,0.00,,---,0.00,VWS V14.01,2013-03-02 13:14:00,
2013-03-02 04:15:00,-8.6,-15.2,30.02,East,80,0.0,0.0,72,0.00,,---,0.00,VWS V14.01,2013-03-02 13:15:00,
2013-03-02 04:16:00,-8.7,-15.3,30.02,East,80,0.0,0.0,72,0.00,,---,0.00,VWS V14.01,2013-03-02 13:16:00,
2013-03-02 04:19:00,-9.3,-15.9,30.02,East,80,0.0,0.0,72,0.00,,---,0.00,VWS V14.01,2013-03-02 13:19:00,
2013-03-02 04:20:00,-9.4,-15.9,30.02,East,80,0.0,0.0,72,0.00,,---,0.00,VWS V14.01,2013-03-02 13:20:00,
2013-03-02 04:21:00,-9.5,-15.8,30.02,East,80,0.0,0.0,73,0.00,,---,0.00,VWS V14.01,2013-03-02 13:21:00,
2013-03-02 04:24:00,-9.8,-15.8,30.02,East,80,0.0,0.0,74,0.00,,---,0.00,VWS V14.01,2013-03-02 13:24:00,
2013-03-02 04:25:00,-9.8,-15.8,30.02,East,80,0.0,0.0,74,0.00,,---,0.00,VWS V14.01,2013-03-02 13:25:00,
2013-03-02 04:26:00,-9.9,-15.9,30.02,East,80,0.0,0.0,74,0.00,,---,0.00,VWS V14.01,2013-03-02 13:26:00,
2013-03-02 04:29:00,-10.1,-15.8,30.02,East,80,0.0,0.0,75,0.00,,---,0.00,VWS V14.01,2013-03-02 13:29:00,
2013-03-02 04:30:00,-10.2,-15.9,30.02,East,80,0.0,0.0,75,0.00,,---,0.00,VWS V14.01,2013-03-02 13:30:00,
2013-03-02 04:31:00,-10.2,-15.9,30.02,East,80,0.0,0.0,75,0.00,,---,0.00,VWS V14.01,2013-03-02 13:31:00,
2013-03-02 04:35:00,-10.4,-16.1,30.02,East,80,0.0,0.0,75,0.00,,---,0.00,VWS V14.01,2013-03-02 13:35:00,
2013-03-02 04:36:00,-10.6,-16.3,30.02,East,80,0.0,0.0,75,0.00,,---,0.00,VWS V14.01,2013-03-02 13:36:00,
2013-03-02 04:40:00,-10.4,-15.9,30.02,East,80,0.0,0.0,76,0.00,,---,0.00,VWS V14.01,2013-03-02 13:40:00,
2013-03-02 04:41:00,-10.4,-15.9,30.02,East,80,0.0,0.0,76,0.00,,---,0.00,VWS V14.01,2013-03-02 13:41:00,
2013-03-02 04:45:00,-10.5,-16.5,30.02,North,355,0.0,1.0,74,0.00,,---,0.00,VWS V14.01,2013-03-02 13:45:00,
2013-03-02 04:46:00,-9.8,-15.5,30.02,North,355,1.0,1.0,75,0.00,,---,0.00,VWS V14.01,2013-03-02 13:46:00,
2013-03-02 04:50:00,-8.9,-16.6,30.02,NNW,348,2.0,2.0,68,0.00,,---,0.00,VWS V14.01,2013-03-02 13:50:00,
2013-03-02 04:51:00,-9.0,-17.0,30.02,NW,326,2.0,2.0,67,0.00,,---,0.00,VWS V14.01,2013-03-02 13:51:00,
2013-03-02 04:55:00,-9.8,-15.5,30.02,East,80,2.0,2.0,75,0.00,,---,0.00,VWS V14.01,2013-03-02 13:55:00,
2013-03-02 04:56:00,-9.8,-15.3,30.02,East,80,0.0,2.0,76,0.00,,---,0.00,VWS V14.01,2013-03-02 13:56:00,
2013-03-02 05:00:00,-10.2,-16.2,30.02,East,80,0.0,0.0,74,0.00,,---,0.00,VWS V14.01,2013-03-02 14:00:00,
2013-03-02 05:01:00,-10.3,-16.5,30.02,East,80,0.0,0.0,73,0.00,,---,0.00,VWS V14.01,2013-03-02 14:01:00,
2013-03-02 05:05:00,-11.0,-17.0,30.02,East,80,0.0,1.0,74,0.00,,---,0.00,VWS V14.01,2013-03-02 14:05:00,
2013-03-02 05:06:00,-11.0,-17.0,30.01,East,80,0.0,1.0,74,0.00,,---,0.00,VWS V14.01,2013-03-02 14:06:00,
2013-03-02 05:11:00,-11.4,-17.1,30.01,East,80,0.0,0.0,75,0.00,,---,0.00,VWS V14.01,2013-03-02 14:11:00,
2013-03-02 05:16:00,-11.6,-17.0,30.01,East,80,0.0,0.0,76,0.00,,---,0.00,VWS V14.01,2013-03-02 14:16:00,
2013-03-02 05:21:00,-11.6,-16.8,30.01,East,80,0.0,0.0,77,0.00,,---,0.00,VWS V14.01,2013-03-02 14:21:00,
2013-03-02 05:26:00,-11.6,-16.5,30.01,East,80,0.0,0.0,78,0.00,,---,0.00,VWS V14.01,2013-03-02 14:26:00,
2013-03-02 05:27:00,-11.6,-16.5,30.01,East,80,0.0,0.0,78,0.00,,---,0.00,VWS V14.01,2013-03-02 14:27:00,
2013-03-02 05:31:00,-11.0,-15.7,30.01,East,80,0.0,0.0,79,0.00,,---,0.00,VWS V14.01,2013-03-02 14:31:00,
2013-03-02 05:32:00,-11.0,-15.7,30.01,East,80,0.0,0.0,79,0.00,,---,0.00,VWS V14.01,2013-03-02 14:32:00,
2013-03-02 05:36:00,-9.8,-14.5,30.01,East,80,0.0,1.0,79,0.00,,---,0.00,VWS V14.01,2013-03-02 14:36:00,
2013-03-02 05:37:00,-9.8,-14.5,30.01,East,80,0.0,1.0,79,0.00,,---,0.00,VWS V14.01,2013-03-02 14:37:00,
2013-03-02 05:42:00,-9.9,-15.1,30.01,East,80,0.0,1.0,77,0.00,,---,0.00,VWS V14.01,2013-03-02 14:42:00,
2013-03-02 05:47:00,-7.6,-15.9,30.01,NNW,336,2.0,3.0,66,0.00,,---,0.00,VWS V14.01,2013-03-02 14:47:00,
2013-03-02 05:52:00,-6.9,-15.9,30.01,North,360,1.0,1.0,64,0.00,,---,0.00,VWS V14.01,2013-03-02 14:52:00,
2013-03-02 05:53:00,-6.6,-15.6,30.01,North,5,1.0,2.0,64,0.00,,---,0.00,VWS V14.01,2013-03-02 14:53:00,
2013-03-02 05:57:00,-6.2,-15.2,30.01,North,10,1.0,1.0,64,0.00,,---,0.00,VWS V14.01,2013-03-02 14:57:00,
2013-03-02 05:58:00,-6.1,-15.1,30.01,NNW,340,0.0,2.0,64,0.00,,---,0.00,VWS V14.01,2013-03-02 14:58:00,
2013-03-02 06:02:00,-6.1,-15.4,30.01,NNW,340,1.0,2.0,63,0.00,,---,0.00,VWS V14.01,2013-03-02 15:02:00,
2013-03-02 06:03:00,-6.1,-15.4,30.01,NNW,340,0.0,2.0,63,0.00,,---,0.00,VWS V14.01,2013-03-02 15:03:00,
2013-03-02 06:07:00,-6.0,-15.3,30.01,NNE,19,2.0,3.0,63,0.00,,---,0.00,VWS V14.01,2013-03-02 15:07:00,
2013-03-02 06:08:00,-6.0,-15.3,30.01,NW,321,2.0,3.0,63,0.00,,---,0.00,VWS V14.01,2013-03-02 15:08:00,
2013-03-02 06:12:00,-6.4,-16.0,30.01,NNE,20,2.0,2.0,62,0.00,,---,0.00,VWS V14.01,2013-03-02 15:12:00,
2013-03-02 06:13:00,-6.6,-16.2,30.01,NNE,20,2.0,2.0,62,0.00,,---,0.00,VWS V14.01,2013-03-02 15:13:00,
2013-03-02 06:17:00,-6.1,-15.1,30.01,North,360,2.0,3.0,64,0.00,,---,0.00,VWS V14.01,2013-03-02 15:17:00,
2013-03-02 06:18:00,-5.9,-14.9,30.00,NNW,333,2.0,3.0,64,0.00,,---,0.00,VWS V14.01,2013-03-02 15:18:00,
2013-03-02 06:22:00,-5.1,-14.4,30.00,NNW,333,2.0,3.0,63,0.00,,---,0.00,VWS V14.01,2013-03-02 15:22:00,
2013-03-02 06:23:00,-5.0,-14.4,30.00,NW,323,3.0,3.0,63,0.00,,---,0.00,VWS V14.01,2013-03-02 15:23:00,
2013-03-02 06:27:00,-4.3,-14.3,30.00,NW,317,1.0,2.0,61,0.00,,---,0.00,VWS V14.01,2013-03-02 15:27:00,
2013-03-02 06:28:00,-4.3,-14.3,30.00,NNE,27,2.0,2.0,61,0.00,,---,0.00,VWS V14.01,2013-03-02 15:28:00,
2013-03-02 06:29:00,-4.4,-14.8,30.00,NW,317,4.0,4.0,60,0.00,,---,0.00,VWS V14.01,2013-03-02 15:29:00,
2013-03-02 06:32:00,-4.6,-14.9,30.00,North,355,1.0,2.0,60,0.00,,---,0.00,VWS V14.01,2013-03-02 15:32:00,
2013-03-02 06:33:00,-4.6,-14.9,30.00,NNW,346,4.0,4.0,60,0.00,,---,0.00,VWS V14.01,2013-03-02 15:33:00,
2013-03-02 06:34:00,-4.6,-14.9,30.00,NW,319,1.0,4.0,60,0.00,,---,0.00,VWS V14.01,2013-03-02 15:34:00,
2013-03-02 06:38:00,-4.6,-14.6,30.00,NNE,15,2.0,3.0,61,0.00,,---,0.00,VWS V14.01,2013-03-02 15:38:00,
2013-03-02 06:39:00,-4.9,-14.9,30.00,North,360,2.0,3.0,61,0.00,,---,0.00,VWS V14.01,2013-03-02 15:39:00,
2013-03-02 06:43:00,-5.4,-15.4,30.00,NNW,329,2.0,3.0,61,0.00,,---,0.00,VWS V14.01,2013-03-02 15:43:00,
2013-03-02 06:44:00,-5.3,-15.0,30.00,NNW,333,2.0,3.0,62,0.00,,---,0.00,VWS V14.01,2013-03-02 15:44:00,
2013-03-02 06:45:00,-5.2,-14.9,30.00,North,355,2.0,3.0,62,0.00,,---,0.00,VWS V14.01,2013-03-02 15:45:00,
2013-03-02 06:48:00,-5.0,-14.7,30.00,NNW,342,1.0,2.0,62,0.00,,---,0.00,VWS V14.01,2013-03-02 15:48:00,
2013-03-02 06:49:00,-4.9,-14.6,30.00,NNW,345,2.0,2.0,62,0.00,,---,0.00,VWS V14.01,2013-03-02 15:49:00,
2013-03-02 06:50:00,-4.7,-14.4,30.00,NW,322,2.0,3.0,62,0.00,,---,0.00,VWS V14.01,2013-03-02 15:50:00,
2013-03-02 06:53:00,-3.9,-13.9,30.00,WNW,302,3.0,4.0,61,0.00,,---,0.00,VWS V14.01,2013-03-02 15:53:00,
2013-03-02 06:54:00,-3.9,-13.9,30.00,WNW,302,2.0,4.0,61,0.00,,---,0.00,VWS V14.01,2013-03-02 15:54:00,
2013-03-02 06:55:00,-3.7,-14.1,30.00,WNW,294,3.0,4.0,60,0.00,,---,0.00,VWS V14.01,2013-03-02 15:55:00,
2013-03-02 06:58:00,-3.5,-14.2,30.00,North,351,1.0,2.0,59,0.00,,---,0.00,VWS V14.01,2013-03-02 15:58:00,
2013-03-02 06:59:00,-3.5,-14.2,30.00,North,351,1.0,2.0,59,0.00,,---,0.00,VWS V14.01,2013-03-02 15:59:00,
2013-03-02 07:00:00,-3.5,-14.2,30.00,NW,319,2.0,3.0,59,0.00,,---,0.00,VWS V14.01,2013-03-02 16:00:00,
2013-03-02 07:03:00,-4.0,-15.0,30.00,NNW,332,2.0,4.0,58,0.00,,---,0.00,VWS V14.01,2013-03-02 16:03:00,
2013-03-02 07:04:00,-4.0,-15.0,30.00,NNW,331,2.0,4.0,58,0.00,,---,0.00,VWS V14.01,2013-03-02 16:04:00,
2013-03-02 07:05:00,-4.0,-14.7,30.00,NNE,15,2.0,4.0,59,0.00,,---,0.00,VWS V14.01,2013-03-02 16:05:00,
2013-03-02 07:09:00,-3.3,-13.7,30.00,NNW,337,2.0,2.0,60,0.00,,---,0.00,VWS V14.01,2013-03-02 16:09:00,
2013-03-02 07:10:00,-2.9,-13.3,30.00,NNW,332,1.0,3.0,60,0.00,,---,0.00,VWS V14.01,2013-03-02 16:10:00,
2013-03-02 07:14:00,-2.2,-13.3,30.00,WNW,287,2.0,3.0,58,0.00,,---,0.00,VWS V14.01,2013-03-02 16:14:00,
2013-03-02 07:15:00,-2.3,-13.8,30.00,NW,319,2.0,3.0,57,0.00,,---,0.00,VWS V14.01,2013-03-02 16:15:00,
2013-03-02 07:19:00,-2.2,-13.7,30.00,WNW,299,2.0,3.0,57,0.00,,---,0.00,VWS V14.01,2013-03-02 16:19:00,
2013-03-02 07:20:00,-2.2,-13.7,30.00,WNW,297,1.0,3.0,57,0.00,,---,0.00,VWS V14.01,2013-03-02 16:20:00,
2013-03-02 07:24:00,-2.5,-14.3,30.00,NW,318,0.0,2.0,56,0.00,,---,0.00,VWS V14.01,2013-03-02 16:24:00,
2013-03-02 07:25:00,-2.7,-14.5,30.00,NW,313,1.0,2.0,56,0.00,,---,0.00,VWS V14.01,2013-03-02 16:25:00,
2013-03-02 07:26:00,-2.7,-14.5,30.00,NW,312,0.0,2.0,56,0.00,,---,0.00,VWS V14.01,2013-03-02 16:26:00,
2013-03-02 07:29:00,-3.2,-15.0,30.00,NNE,13,0.0,1.0,56,0.00,,---,0.00,VWS V14.01,2013-03-02 16:29:00,
2013-03-02 07:30:00,-3.5,-15.3,30.00,NNE,18,0.0,1.0,56,0.00,,---,0.00,VWS V14.01,2013-03-02 16:30:00,
2013-03-02 07:31:00,-3.5,-14.9,30.00,NNE,19,0.0,1.0,57,0.00,,---,0.00,VWS V14.01,2013-03-02 16:31:00,
2013-03-02 07:34:00,-4.3,-15.3,30.00,East,98,1.0,2.0,58,0.00,,---,0.00,VWS V14.01,2013-03-02 16:34:00,
2013-03-02 07:35:00,-4.4,-15.1,30.00,East,98,0.0,2.0,59,0.00,,---,0.00,VWS V14.01,2013-03-02 16:35:00,
2013-03-02 07:36:00,-4.6,-15.3,30.00,East,98,0.0,2.0,59,0.00,,---,0.00,VWS V14.01,2013-03-02 16:36:00,
2013-03-02 07:39:00,-5.0,-15.3,30.00,East,98,0.0,1.0,60,0.00,,---,0.00,VWS V14.01,2013-03-02 16:39:00,
2013-03-02 07:40:00,-5.0,-15.3,30.00,East,98,0.0,1.0,60,0.00,,---,0.00,VWS V14.01,2013-03-02 16:40:00,
2013-03-02 07:41:00,-6.2,-14.0,30.00,East,80,0.0,1.0,68,0.00,,---,0.00,VWS V14.01,2013-03-02 16:41:00,
2013-03-02 07:45:00,-6.4,-13.9,30.00,East,80,0.0,0.0,69,0.00,,---,0.00,VWS V14.01,2013-03-02 16:45:00,
2013-03-02 07:46:00,-6.5,-14.0,30.00,East,80,0.0,2.0,69,0.00,,---,0.00,VWS V14.01,2013-03-02 16:46:00,
2013-03-02 07:50:00,-6.2,-13.7,30.00,East,80,1.0,2.0,69,0.00,,---,0.00,VWS V14.01,2013-03-02 16:50:00,
2013-03-02 07:51:00,-6.0,-13.5,30.00,East,80,2.0,3.0,69,0.00,,---,0.00,VWS V14.01,2013-03-02 16:51:00,
2013-03-02 07:55:00,-5.4,-12.9,30.00,East,80,0.0,0.0,69,0.00,,---,0.00,VWS V14.01,2013-03-02 16:55:00,
2013-03-02 07:56:00,-5.4,-12.9,29.99,East,80,0.0,0.0,69,0.00,,---,0.00,VWS V14.01,2013-03-02 16:56:00,
2013-03-02 08:00:00,-5.7,-13.5,30.00,East,80,0.0,0.0,68,0.00,,---,0.00,VWS V14.01,2013-03-02 17:00:00,
2013-03-02 08:01:00,-5.8,-13.6,30.00,East,80,0.0,0.0,68,0.00,,---,0.00,VWS V14.01,2013-03-02 17:01:00,
2013-03-02 08:05:00,-6.4,-13.9,30.00,East,80,0.0,0.0,69,0.00,,---,0.00,VWS V14.01,2013-03-02 17:05:00,
2013-03-02 08:06:00,-6.5,-14.0,30.00,East,80,0.0,0.0,69,0.00,,---,0.00,VWS V14.01,2013-03-02 17:06:00,
2013-03-02 08:07:00,-6.6,-14.1,30.00,East,80,0.0,0.0,69,0.00,,---,0.00,VWS V14.01,2013-03-02 17:07:00,
2013-03-02 08:10:00,-6.8,-14.0,30.00,East,80,0.0,0.0,70,0.00,,---,0.00,VWS V14.01,2013-03-02 17:10:00,
2013-03-02 08:11:00,-6.9,-14.1,30.00,East,80,0.0,0.0,70,0.00,,---,0.00,VWS V14.01,2013-03-02 17:11:00,
2013-03-02 08:12:00,-7.0,-14.2,30.00,East,80,0.0,0.0,70,0.00,,---,0.00,VWS V14.01,2013-03-02 17:12:00,
2013-03-02 08:15:00,-7.3,-14.2,30.00,East,80,0.0,0.0,71,0.00,,---,0.00,VWS V14.01,2013-03-02 17:15:00,
2013-03-02 08:16:00,-7.3,-14.2,30.00,East,80,0.0,0.0,71,0.00,,---,0.00,VWS V14.01,2013-03-02 17:16:00,
2013-03-02 08:17:00,-7.3,-14.2,30.00,East,80,0.0,3.0,71,0.00,,---,0.00,VWS V14.01,2013-03-02 17:17:00,
2013-03-02 08:20:00,-7.6,-14.5,30.00,East,80,0.0,3.0,71,0.00,,---,0.00,VWS V14.01,2013-03-02 17:20:00,
2013-03-02 08:21:00,-7.6,-14.5,30.00,East,80,0.0,3.0,71,0.00,,---,0.00,VWS V14.01,2013-03-02 17:21:00,
2013-03-02 08:22:00,-7.6,-14.5,30.00,East,80,0.0,0.0,71,0.00,,---,0.00,VWS V14.01,2013-03-02 17:22:00,
2013-03-02 08:25:00,-7.6,-14.2,30.00,East,80,0.0,0.0,72,0.00,,---,0.00,VWS V14.01,2013-03-02 17:25:00,
2013-03-02 08:26:00,-7.6,-14.2,30.00,East,80,0.0,0.0,72,0.00,,---,0.00,VWS V14.01,2013-03-02 17:26:00,
2013-03-02 08:27:00,-7.6,-14.2,30.00,East,80,0.0,0.0,72,0.00,,---,0.00,VWS V14.01,2013-03-02 17:27:00,
2013-03-02 08:30:00,-7.7,-14.3,30.00,East,80,0.0,0.0,72,0.00,,---,0.00,VWS V14.01,2013-03-02 17:30:00,
2013-03-02 08:32:00,-7.7,-14.3,30.00,East,80,0.0,0.0,72,0.00,,---,0.00,VWS V14.01,2013-03-02 17:32:00,
2013-03-02 08:33:00,-7.7,-14.3,30.00,East,80,0.0,0.0,72,0.00,,---,0.00,VWS V14.01,2013-03-02 17:33:00,
2013-03-02 08:35:00,-7.4,-13.8,30.00,East,80,0.0,0.0,73,0.00,,---,0.00,VWS V14.01,2013-03-02 17:35:00,
2013-03-02 08:37:00,-7.3,-13.6,30.00,East,80,0.0,0.0,73,0.00,,---,0.00,VWS V14.01,2013-03-02 17:37:00,
2013-03-02 08:38:00,-7.3,-13.6,30.00,East,80,3.0,4.0,73,0.00,,---,0.00,VWS V14.01,2013-03-02 17:38:00,
2013-03-02 08:40:00,-7.6,-14.2,30.00,East,80,0.0,4.0,72,0.00,,---,0.00,VWS V14.01,2013-03-02 17:40:00,
2013-03-02 08:42:00,-7.6,-14.2,30.00,East,80,1.0,1.0,72,0.00,,---,0.00,VWS V14.01,2013-03-02 17:42:00,
2013-03-02 08:43:00,-7.8,-14.4,30.00,East,80,0.0,1.0,72,0.00,,---,0.00,VWS V14.01,2013-03-02 17:43:00,
2013-03-02 08:45:00,-8.0,-14.6,30.00,East,80,0.0,2.0,72,0.00,,---,0.00,VWS V14.01,2013-03-02 17:45:00,
2013-03-02 08:47:00,-8.0,-14.6,30.00,East,80,0.0,0.0,72,0.00,,---,0.00,VWS V14.01,2013-03-02 17:47:00,
2013-03-02 08:48:00,-8.0,-14.6,30.00,East,80,0.0,0.0,72,0.00,,---,0.00,VWS V14.01,2013-03-02 17:48:00,
2013-03-02 08:51:00,-7.9,-14.2,30.00,East,80,0.0,0.0,73,0.00,,---,0.00,VWS V14.01,2013-03-02 17:51:00,
2013-03-02 08:52:00,-7.7,-14.0,30.00,East,80,0.0,0.0,73,0.00,,---,0.00,VWS V14.01,2013-03-02 17:52:00,
2013-03-02 08:53:00,-7.6,-13.9,30.00,East,80,0.0,0.0,73,0.00,,---,0.00,VWS V14.01,2013-03-02 17:53:00,
2013-03-02 08:56:00,-7.7,-14.3,30.00,East,80,0.0,0.0,72,0.00,,---,0.00,VWS V14.01,2013-03-02 17:56:00,
2013-03-02 08:57:00,-7.8,-14.4,30.00,East,80,0.0,0.0,72,0.00,,---,0.00,VWS V14.01,2013-03-02 17:57:00,
2013-03-02 08:58:00,-7.8,-14.4,30.00,East,80,0.0,0.0,72,0.00,,---,0.00,VWS V14.01,2013-03-02 17:58:00,
2013-03-02 09:01:00,-7.9,-14.5,30.00,East,80,0.0,0.0,72,0.00,,---,0.00,VWS V14.01,2013-03-02 18:01:00,
2013-03-02 09:03:00,-7.9,-14.2,30.00,East,80,0.0,0.0,73,0.00,,---,0.00,VWS V14.01,2013-03-02 18:03:00,
2013-03-02 09:06:00,-8.0,-14.1,30.00,East,80,0.0,0.0,74,0.00,,---,0.00,VWS V14.01,2013-03-02 18:06:00,
2013-03-02 09:08:00,-8.0,-14.1,30.00,East,80,0.0,0.0,74,0.00,,---,0.00,VWS V14.01,2013-03-02 18:08:00,
2013-03-02 09:11:00,-7.9,-14.0,30.00,East,80,0.0,0.0,74,0.00,,---,0.00,VWS V14.01,2013-03-02 18:11:00,
2013-03-02 09:13:00,-7.8,-13.6,30.00,East,80,0.0,0.0,75,0.00,,---,0.00,VWS V14.01,2013-03-02 18:13:00,
2013-03-02 09:14:00,-7.8,-13.6,30.00,East,80,0.0,0.0,75,0.00,,---,0.00,VWS V14.01,2013-03-02 18:14:00,
2013-03-02 09:16:00,-7.6,-13.4,30.00,East,80,0.0,0.0,75,0.00,,---,0.00,VWS V14.01,2013-03-02 18:16:00,
2013-03-02 09:18:00,-7.5,-13.0,30.00,East,80,2.0,3.0,76,0.00,,---,0.00,VWS V14.01,2013-03-02 18:18:00,
2013-03-02 09:19:00,-7.5,-13.0,30.00,East,80,3.0,3.0,76,0.00,,---,0.00,VWS V14.01,2013-03-02 18:19:00,
2013-03-02 09:22:00,-6.9,-12.2,30.00,East,80,0.0,4.0,77,0.00,,---,0.00,VWS V14.01,2013-03-02 18:22:00,
2013-03-02 09:24:00,-6.2,-11.5,30.00,East,80,1.0,2.0,77,0.00,,---,0.00,VWS V14.01,2013-03-02 18:24:00,
2013-03-02 09:27:00,-5.7,-11.6,30.00,East,80,1.0,1.0,75,0.00,,---,0.00,VWS V14.01,2013-03-02 18:27:00,
2013-03-02 09:29:00,-5.5,-11.6,30.00,East,80,0.0,1.0,74,0.00,,---,0.00,VWS V14.01,2013-03-02 18:29:00,
2013-03-02 09:32:00,-5.3,-11.4,30.00,East,80,3.0,3.0,74,0.00,,---,0.00,VWS V14.01,2013-03-02 18:32:00,
2013-03-02 09:34:00,-5.2,-11.3,30.00,East,80,0.0,4.0,74,0.00,,---,0.00,VWS V14.01,2013-03-02 18:34:00,
2013-03-02 09:35:00,-5.1,-11.2,30.00,East,80,0.0,4.0,74,0.00,,---,0.00,VWS V14.01,2013-03-02 18:35:00,
2013-03-02 09:37:00,-5.0,-11.4,30.00,East,80,0.0,4.0,73,0.00,,---,0.00,VWS V14.01,2013-03-02 18:37:00,
2013-03-02 09:39:00,-4.8,-11.2,30.00,East,80,0.0,0.0,73,0.00,,---,0.00,VWS V14.01,2013-03-02 18:39:00,
2013-03-02 09:40:00,-4.8,-11.2,30.00,East,80,0.0,0.0,73,0.00,,---,0.00,VWS V14.01,2013-03-02 18:40:00,
2013-03-02 09:42:00,-4.6,-10.8,30.00,East,80,0.0,0.0,74,0.00,,---,0.00,VWS V14.01,2013-03-02 18:42:00,
2013-03-02 09:44:00,-4.2,-10.6,30.00,East,80,0.0,2.0,73,0.00,,---,0.00,VWS V14.01,2013-03-02 18:44:00,
2013-03-02 09:45:00,-4.1,-10.6,30.00,East,80,0.0,2.0,73,0.00,,---,0.00,VWS V14.01,2013-03-02 18:45:00,
2013-03-02 09:47:00,-3.7,-10.2,30.00,East,80,2.0,3.0,73,0.00,,---,0.00,VWS V14.01,2013-03-02 18:47:00,
2013-03-02 09:49:00,-3.2,-9.7,30.00,East,80,1.0,3.0,73,0.00,,---,0.00,VWS V14.01,2013-03-02 18:49:00,
2013-03-02 09:50:00,-3.0,-9.8,30.00,East,80,1.0,3.0,72,0.00,,---,0.00,VWS V14.01,2013-03-02 18:50:00,
2013-03-02 09:51:00,-2.7,-9.5,30.00,East,80,2.0,3.0,72,0.00,,---,0.00,VWS V14.01,2013-03-02 18:51:00,
2013-03-02 09:55:00,-1.7,-8.8,30.00,East,80,0.0,3.0,71,0.00,,---,0.00,VWS V14.01,2013-03-02 18:55:00,
2013-03-02 09:56:00,-1.3,-8.4,30.00,East,80,1.0,3.0,71,0.00,,---,0.00,VWS V14.01,2013-03-02 18:56:00,
2013-03-02 09:57:00,-1.1,-8.5,30.00,East,80,0.0,3.0,70,0.00,,---,0.00,VWS V14.01,2013-03-02 18:57:00,
2013-03-02 10:00:00,-0.4,-7.8,30.00,East,80,0.0,2.0,70,0.00,,---,0.00,VWS V14.01,2013-03-02 19:00:00,
2013-03-02 10:01:00,-0.3,-8.0,30.00,East,80,0.0,2.0,69,0.00,,---,0.00,VWS V14.01,2013-03-02 19:01:00,
2013-03-02 10:02:00,-0.2,-7.9,30.00,East,80,0.0,0.0,69,0.00,,---,0.00,VWS V14.01,2013-03-02 19:02:00,
2013-03-02 10:05:00,-0.1,-7.7,30.00,East,80,0.0,0.0,69,0.00,,---,0.00,VWS V14.01,2013-03-02 19:05:00,
2013-03-02 10:06:00,0.1,-7.6,30.00,East,80,0.0,0.0,69,0.00,,---,0.00,VWS V14.01,2013-03-02 19:06:00,
2013-03-02 10:07:00,0.1,-7.6,30.00,East,80,0.0,0.0,69,0.00,,---,0.00,VWS V14.01,2013-03-02 19:07:00,
2013-03-02 10:11:00,0.2,-7.6,30.00,East,80,0.0,0.0,69,0.00,,---,0.00,VWS V14.01,2013-03-02 19:11:00,
2013-03-02 10:12:00,0.3,-7.8,30.00,East,80,0.0,0.0,68,0.00,,---,0.00,VWS V14.01,2013-03-02 19:12:00,
2013-03-02 10:16:00,0.7,-7.7,30.00,East,80,0.0,3.0,67,0.00,,---,0.00,VWS V14.01,2013-03-02 19:16:00,
2013-03-02 10:17:00,0.8,-7.3,30.00,East,80,0.0,0.0,68,0.00,,---,0.00,VWS V14.01,2013-03-02 19:17:00,
2013-03-02 10:21:00,0.8,-7.3,30.00,East,80,0.0,0.0,68,0.00,,---,0.00,VWS V14.01,2013-03-02 19:21:00,
2013-03-02 10:23:00,0.8,-7.3,30.00,East,80,0.0,0.0,68,0.00,,---,0.00,VWS V14.01,2013-03-02 19:23:00,
2013-03-02 10:26:00,0.9,-7.2,30.00,East,80,0.0,0.0,68,0.00,,---,0.00,VWS V14.01,2013-03-02 19:26:00,
2013-03-02 10:27:00,0.9,-7.2,30.00,East,80,0.0,0.0,68,0.00,,---,0.00,VWS V14.01,2013-03-02 19:27:00,
2013-03-02 10:28:00,0.9,-7.2,30.00,East,80,0.0,0.0,68,0.00,,---,0.00,VWS V14.01,2013-03-02 19:28:00,
2013-03-02 10:31:00,1.1,-7.0,30.00,East,80,0.0,0.0,68,0.00,,---,0.00,VWS V14.01,2013-03-02 19:31:00,
2013-03-02 10:32:00,1.1,-7.0,30.00,East,80,0.0,0.0,68,0.00,,---,0.00,VWS V14.01,2013-03-02 19:32:00,
2013-03-02 10:33:00,1.2,-6.9,30.00,East,80,0.0,0.0,68,0.00,,---,0.00,VWS V14.01,2013-03-02 19:33:00,
2013-03-02 10:36:00,1.4,-6.4,30.00,East,80,0.0,0.0,69,0.00,,---,0.00,VWS V14.01,2013-03-02 19:36:00,
2013-03-02 10:37:00,1.4,-6.4,30.00,East,80,0.0,0.0,69,0.00,,---,0.00,VWS V14.01,2013-03-02 19:37:00,
2013-03-02 10:38:00,1.5,-6.3,30.00,East,80,0.0,0.0,69,0.00,,---,0.00,VWS V14.01,2013-03-02 19:38:00,
2013-03-02 10:41:00,1.8,-6.3,30.00,East,80,0.0,2.0,68,0.00,,---,0.00,VWS V14.01,2013-03-02 19:41:00,
2013-03-02 10:42:00,1.8,-6.0,30.00,East,80,0.0,0.0,69,0.00,,---,0.00,VWS V14.01,2013-03-02 19:42:00,
2013-03-02 10:43:00,1.9,-5.9,30.00,East,80,0.0,0.0,69,0.00,,---,0.00,VWS V14.01,2013-03-02 19:43:00,
2013-03-02 10:47:00,2.1,-6.0,30.01,East,80,0.0,0.0,68,0.00,,---,0.00,VWS V14.01,2013-03-02 19:47:00,
2013-03-02 10:48:00,2.2,-5.9,30.00,East,80,0.0,0.0,68,0.00,,---,0.00,VWS V14.01,2013-03-02 19:48:00,
2013-03-02 10:52:00,2.3,-5.8,30.00,East,80,0.0,0.0,68,0.00,,---,0.00,VWS V14.01,2013-03-02 19:52:00,
2013-03-02 10:53:00,2.2,-5.9,30.00,East,80,0.0,0.0,68,0.00,,---,0.00,VWS V14.01,2013-03-02 19:53:00,
2013-03-02 10:57:00,2.2,-6.2,30.00,East,80,0.0,0.0,67,0.00,,---,0.00,VWS V14.01,2013-03-02 19:57:00,
2013-03-02 10:59:00,2.3,-6.4,30.00,East,80,0.0,1.0,66,0.00,,---,0.00,VWS V14.01,2013-03-02 19:59:00,
2013-03-02 11:02:00,2.7,-6.1,30.00,East,80,2.0,2.0,66,0.00,,---,0.00,VWS V14.01,2013-03-02 20:02:00,
2013-03-02 11:04:00,2.9,-5.9,30.00,East,80,0.0,2.0,66,0.00,,---,0.00,VWS V14.01,2013-03-02 20:04:00,
2013-03-02 11:07:00,3.2,-5.6,30.00,East,80,2.0,2.0,66,0.00,,---,0.00,VWS V14.01,2013-03-02 20:07:00,
2013-03-02 11:09:00,3.7,-5.1,30.00,East,80,2.0,4.0,66,0.00,,---,0.00,VWS V14.01,2013-03-02 20:09:00,
2013-03-02 11:12:00,4.3,-4.5,30.00,East,80,2.0,2.0,66,0.00,,---,0.00,VWS V14.01,2013-03-02 20:12:00,
2013-03-02 11:14:00,4.9,-4.6,30.00,East,80,3.0,4.0,64,0.00,,---,0.00,VWS V14.01,2013-03-02 20:14:00,
2013-03-02 11:17:00,6.2,-4.0,30.01,East,80,0.0,0.0,62,0.00,,---,0.00,VWS V14.01,2013-03-02 20:17:00,
2013-03-02 11:19:00,6.9,-3.7,30.01,East,80,0.0,2.0,61,0.00,,---,0.00,VWS V14.01,2013-03-02 20:19:00,
2013-03-02 11:22:00,7.7,-3.6,30.01,East,80,2.0,3.0,59,0.00,,---,0.00,VWS V14.01,2013-03-02 20:22:00,
2013-03-02 11:24:00,8.1,-3.6,30.01,East,80,0.0,3.0,58,0.00,,---,0.00,VWS V14.01,2013-03-02 20:24:00,
2013-03-02 11:27:00,8.5,-3.6,30.01,East,80,2.0,3.0,57,0.00,,---,0.00,VWS V14.01,2013-03-02 20:27:00,
2013-03-02 11:28:00,8.5,-3.6,30.01,East,80,0.0,3.0,57,0.00,,---,0.00,VWS V14.01,2013-03-02 20:28:00,
2013-03-02 11:30:00,8.4,-4.4,30.01,East,80,3.0,3.0,55,0.00,,---,0.00,VWS V14.01,2013-03-02 20:30:00,
2013-03-02 11:32:00,8.4,-4.8,30.01,East,80,0.0,2.0,54,0.00,,---,0.00,VWS V14.01,2013-03-02 20:32:00,
2013-03-02 11:33:00,8.4,-4.8,30.01,East,80,0.0,2.0,54,0.00,,---,0.00,VWS V14.01,2013-03-02 20:33:00,
2013-03-02 11:35:00,8.5,-4.7,30.01,East,80,0.0,2.0,54,0.00,,---,0.00,VWS V14.01,2013-03-02 20:35:00,
2013-03-02 11:38:00,8.8,-4.4,30.01,East,80,0.0,0.0,54,0.00,,---,0.00,VWS V14.01,2013-03-02 20:38:00,
2013-03-02 11:40:00,9.0,-3.9,30.01,East,80,0.0,0.0,55,0.00,,---,0.00,VWS V14.01,2013-03-02 20:40:00,
2013-03-02 11:43:00,9.3,-4.0,30.01,East,80,0.0,0.0,54,0.00,,---,0.00,VWS V14.01,2013-03-02 20:43:00,
2013-03-02 11:45:00,9.5,-3.8,30.01,East,80,0.0,0.0,54,0.00,,---,0.00,VWS V14.01,2013-03-02 20:45:00,
2013-03-02 11:48:00,9.8,-3.5,30.01,East,80,0.0,0.0,54,0.00,,---,0.00,VWS V14.01,2013-03-02 20:48:00,
2013-03-02 11:50:00,10.1,-3.6,30.01,East,80,0.0,0.0,53,0.00,,---,0.00,VWS V14.01,2013-03-02 20:50:00,
2013-03-02 11:53:00,10.6,-3.1,30.01,East,80,0.0,0.0,53,0.00,,---,0.00,VWS V14.01,2013-03-02 20:53:00,
2013-03-02 11:54:00,10.6,-3.1,30.01,East,80,0.0,0.0,53,0.00,,---,0.00,VWS V14.01,2013-03-02 20:54:00,
2013-03-02 11:56:00,10.9,-2.9,30.01,East,80,0.0,0.0,53,0.00,,---,0.00,VWS V14.01,2013-03-02 20:56:00,
2013-03-02 11:58:00,11.2,-2.6,30.00,East,80,0.0,0.0,53,0.00,,---,0.00,VWS V14.01,2013-03-02 20:58:00,
2013-03-02 11:59:00,11.2,-2.6,30.00,East,80,0.0,0.0,53,0.00,,---,0.00,VWS V14.01,2013-03-02 20:59:00,
2013-03-02 12:01:00,11.4,-2.4,30.00,East,80,0.0,0.0,53,0.00,,---,0.00,VWS V14.01,2013-03-02 21:01:00,
2013-03-02 12:03:00,11.7,-2.9,30.00,East,80,0.0,0.0,51,0.00,,---,0.00,VWS V14.01,2013-03-02 21:03:00,
2013-03-02 12:04:00,11.7,-2.9,30.00,East,80,0.0,0.0,51,0.00,,---,0.00,VWS V14.01,2013-03-02 21:04:00,
2013-03-02 12:06:00,12.0,-2.7,30.00,East,80,0.0,0.0,51,0.00,,---,0.00,VWS V14.01,2013-03-02 21:06:00,
2013-03-02 12:09:00,12.3,-2.8,30.00,East,80,0.0,2.0,50,0.00,,---,0.00,VWS V14.01,2013-03-02 21:09:00,
2013-03-02 12:10:00,12.5,-3.0,30.00,East,80,0.0,2.0,49,0.00,,---,0.00,VWS V14.01,2013-03-02 21:10:00,
2013-03-02 12:11:00,12.8,-3.2,30.00,East,80,0.0,2.0,48,0.00,,---,0.00,VWS V14.01,2013-03-02 21:11:00,
2013-03-02 12:14:00,13.2,-2.8,30.00,East,80,0.0,0.0,48,0.00,,---,0.00,VWS V14.01,2013-03-02 21:14:00,
2013-03-02 12:15:00,13.3,-2.7,30.00,East,80,4.0,5.0,48,0.00,,---,0.00,VWS V14.01,2013-03-02 21:15:00,
2013-03-02 12:16:00,13.4,-2.6,30.01,East,80,3.0,5.0,48,0.00,,---,0.00,VWS V14.01,2013-03-02 21:16:00,
2013-03-02 12:19:00,13.2,-3.2,30.01,East,80,0.0,4.0,47,0.00,,---,0.00,VWS V14.01,2013-03-02 21:19:00,
2013-03-02 12:20:00,13.0,-3.4,30.00,East,80,2.0,4.0,47,0.00,,---,0.00,VWS V14.01,2013-03-02 21:20:00,
2013-03-02 12:21:00,12.8,-3.6,30.00,East,80,0.0,4.0,47,0.00,,---,0.00,VWS V14.01,2013-03-02 21:21:00,
2013-03-02 12:24:00,12.6,-3.8,30.00,East,80,0.0,0.0,47,0.00,,---,0.00,VWS V14.01,2013-03-02 21:24:00,
2013-03-02 12:25:00,12.6,-3.8,30.00,East,80,0.0,0.0,47,0.00,,---,0.00,VWS V14.01,2013-03-02 21:25:00,
2013-03-02 12:26:00,12.6,-3.4,30.00,East,80,0.0,2.0,48,0.00,,---,0.00,VWS V14.01,2013-03-02 21:26:00,
2013-03-02 12:29:00,12.7,-3.3,30.00,East,80,0.0,0.0,48,0.00,,---,0.00,VWS V14.01,2013-03-02 21:29:00,
2013-03-02 12:30:00,12.8,-3.2,30.00,East,80,0.0,0.0,48,0.00,,---,0.00,VWS V14.01,2013-03-02 21:30:00,
2013-03-02 12:32:00,13.0,-3.4,30.00,East,80,0.0,0.0,47,0.00,,---,0.00,VWS V14.01,2013-03-02 21:32:00,
2013-03-02 12:34:00,13.4,-3.1,30.00,East,80,0.0,0.0,47,0.00,,---,0.00,VWS V14.01,2013-03-02 21:34:00,
2013-03-02 12:35:00,13.4,-3.1,30.00,East,80,0.0,0.0,47,0.00,,---,0.00,VWS V14.01,2013-03-02 21:35:00,
2013-03-02 12:37:00,13.7,-2.8,30.00,East,80,0.0,0.0,47,0.00,,---,0.00,VWS V14.01,2013-03-02 21:37:00,
2013-03-02 12:39:00,14.1,-2.9,30.00,East,80,0.0,0.0,46,0.00,,---,0.00,VWS V14.01,2013-03-02 21:39:00,
2013-03-02 12:40:00,14.1,-3.3,30.00,East,80,0.0,0.0,45,0.00,,---,0.00,VWS V14.01,2013-03-02 21:40:00,
2013-03-02 12:42:00,14.5,-3.4,30.00,East,80,0.0,0.0,44,0.00,,---,0.00,VWS V14.01,2013-03-02 21:42:00,
2013-03-02 12:45:00,14.9,-3.1,30.00,East,80,0.0,0.0,44,0.00,,---,0.00,VWS V14.01,2013-03-02 21:45:00,
2013-03-02 12:46:00,15.1,-2.9,30.00,East,80,0.0,0.0,44,0.00,,---,0.00,VWS V14.01,2013-03-02 21:46:00,
2013-03-02 12:48:00,15.3,-3.2,30.00,East,80,0.0,0.0,43,0.00,,---,0.00,VWS V14.01,2013-03-02 21:48:00,
2013-03-02 12:50:00,15.6,-2.9,30.00,East,80,0.0,0.0,43,0.00,,---,0.00,VWS V14.01,2013-03-02 21:50:00,
2013-03-02 12:51:00,15.8,-2.7,30.00,East,80,0.0,0.0,43,0.00,,---,0.00,VWS V14.01,2013-03-02 21:51:00,
2013-03-02 12:53:00,16.0,-3.0,30.00,East,80,0.0,0.0,42,0.00,,---,0.00,VWS V14.01,2013-03-02 21:53:00,
2013-03-02 12:55:00,16.3,-2.8,30.00,East,80,0.0,0.0,42,0.00,,---,0.00,VWS V14.01,2013-03-02 21:55:00,
2013-03-02 12:56:00,16.4,-2.7,30.00,East,80,0.0,0.0,42,0.00,,---,0.00,VWS V14.01,2013-03-02 21:56:00,
2013-03-02 12:58:00,16.7,-2.4,30.00,East,80,0.0,0.0,42,0.00,,---,0.00,VWS V14.01,2013-03-02 21:58:00,
2013-03-02 13:00:00,16.9,-1.7,29.99,East,80,0.0,0.0,43,0.00,,---,0.00,VWS V14.01,2013-03-02 22:00:00,
2013-03-02 13:01:00,17.0,-2.1,29.99,East,80,0.0,0.0,42,0.00,,---,0.00,VWS V14.01,2013-03-02 22:01:00,
2013-03-02 13:03:00,17.1,-2.0,29.99,East,80,0.0,0.0,42,0.00,,---,0.00,VWS V14.01,2013-03-02 22:03:00,
2013-03-02 13:05:00,17.3,-1.9,30.00,East,80,0.0,0.0,42,0.00,,---,0.00,VWS V14.01,2013-03-02 22:05:00,
2013-03-02 13:06:00,17.4,-2.3,30.00,East,80,0.0,0.0,41,0.00,,---,0.00,VWS V14.01,2013-03-02 22:06:00,
2013-03-02 13:08:00,17.6,-2.1,30.00,East,80,0.0,0.0,41,0.00,,---,0.00,VWS V14.01,2013-03-02 22:08:00,
2013-03-02 13:11:00,17.8,-1.9,30.00,East,80,0.0,2.0,41,0.00,,---,0.00,VWS V14.01,2013-03-02 22:11:00,
2013-03-02 13:13:00,18.1,-2.2,30.00,East,80,0.0,2.0,40,0.00,,---,0.00,VWS V14.01,2013-03-02 22:13:00,
2013-03-02 13:16:00,18.1,-1.6,30.00,East,80,0.0,2.0,41,0.00,,---,0.00,VWS V14.01,2013-03-02 22:16:00,
2013-03-02 13:18:00,18.2,-1.5,30.00,East,80,0.0,1.0,41,0.00,,---,0.00,VWS V14.01,2013-03-02 22:18:00,
2013-03-02 13:21:00,18.4,-1.4,30.00,East,80,0.0,1.0,41,0.00,,---,0.00,VWS V14.01,2013-03-02 22:21:00,
2013-03-02 13:22:00,18.4,-1.9,30.00,East,80,0.0,0.0,40,0.00,,---,0.00,VWS V14.01,2013-03-02 22:22:00,
2013-03-02 13:23:00,18.5,-1.8,30.00,East,80,0.0,0.0,40,0.00,,---,0.00,VWS V14.01,2013-03-02 22:23:00,
2013-03-02 13:26:00,18.6,-2.2,30.00,East,80,0.0,0.0,39,0.00,,---,0.00,VWS V14.01,2013-03-02 22:26:00,
2013-03-02 13:27:00,18.6,-2.2,30.00,East,80,0.0,0.0,39,0.00,,---,0.00,VWS V14.01,2013-03-02 22:27:00,
2013-03-02 13:29:00,18.9,-2.5,30.00,East,80,0.0,0.0,38,0.00,,---,0.00,VWS V14.01,2013-03-02 22:29:00,
2013-03-02 13:31:00,19.1,-2.3,30.00,East,80,0.0,0.0,38,0.00,,---,0.00,VWS V14.01,2013-03-02 22:31:00,
2013-03-02 13:32:00,19.1,-2.3,30.00,East,80,0.0,0.0,38,0.00,,---,0.00,VWS V14.01,2013-03-02 22:32:00,
2013-03-02 13:34:00,19.3,-2.1,30.00,East,80,0.0,1.0,38,0.00,,---,0.00,VWS V14.01,2013-03-02 22:34:00,
2013-03-02 13:36:00,19.6,-3.6,30.00,East,80,0.0,1.0,35,0.00,,---,0.00,VWS V14.01,2013-03-02 22:36:00,
2013-03-02 13:37:00,19.6,-4.2,30.00,East,80,0.0,0.0,34,0.00,,---,0.00,VWS V14.01,2013-03-02 22:37:00,
2013-03-02 13:39:00,19.9,-3.9,29.99,East,80,0.0,0.0,34,0.00,,---,0.00,VWS V14.01,2013-03-02 22:39:00,
2013-03-02 13:42:00,20.4,-3.5,30.00,East,80,0.0,0.0,34,0.00,,---,0.00,VWS V14.01,2013-03-02 22:42:00,
2013-03-02 13:43:00,20.5,-4.0,30.00,East,80,1.0,4.0,33,0.00,,---,0.00,VWS V14.01,2013-03-02 22:43:00,
2013-03-02 13:44:00,20.7,-3.2,30.00,East,80,0.0,4.0,34,0.00,,---,0.00,VWS V14.01,2013-03-02 22:44:00,
2013-03-02 13:47:00,20.8,-3.1,30.00,East,80,1.0,3.0,34,0.00,,---,0.00,VWS V14.01,2013-03-02 22:47:00,
2013-03-02 13:48:00,20.8,-3.1,30.00,East,80,2.0,3.0,34,0.00,,---,0.00,VWS V14.01,2013-03-02 22:48:00,
2013-03-02 13:49:00,20.9,-3.0,30.00,East,80,0.0,3.0,34,0.00,,---,0.00,VWS V14.01,2013-03-02 22:49:00,
2013-03-02 13:53:00,21.0,-2.3,29.99,East,80,0.0,0.0,35,0.00,,---,0.00,VWS V14.01,2013-03-02 22:53:00,
2013-03-02 13:54:00,21.1,-2.3,29.99,East,80,0.0,0.0,35,0.00,,---,0.00,VWS V14.01,2013-03-02 22:54:00,
2013-03-02 13:58:00,21.3,-3.3,29.99,East,80,0.0,0.0,33,0.00,,---,0.00,VWS V14.01,2013-03-02 22:58:00,
2013-03-02 13:59:00,21.4,-3.2,29.99,East,80,0.0,0.0,33,0.00,,---,0.00,VWS V14.01,2013-03-02 22:59:00,
2013-03-02 14:03:00,21.8,-2.2,29.99,East,80,0.0,0.0,34,0.00,,---,0.00,VWS V14.01,2013-03-02 23:03:00,
2013-03-02 14:04:00,21.8,-2.2,29.99,East,80,0.0,0.0,34,0.00,,---,0.00,VWS V14.01,2013-03-02 23:04:00,
2013-03-02 14:05:00,22.0,-4.0,29.99,East,80,0.0,0.0,31,0.00,,---,0.00,VWS V14.01,2013-03-02 23:05:00,
2013-03-02 14:08:00,22.3,-5.1,29.99,East,80,0.0,0.0,29,0.00,,---,0.00,VWS V14.01,2013-03-02 23:08:00,
2013-03-02 14:09:00,22.4,-5.0,29.99,East,80,0.0,0.0,29,0.00,,---,0.00,VWS V14.01,2013-03-02 23:09:00,
2013-03-02 14:10:00,22.6,-4.9,29.98,East,80,0.0,0.0,29,0.00,,---,0.00,VWS V14.01,2013-03-02 23:10:00,
2013-03-02 14:13:00,23.0,-3.8,29.99,East,80,0.0,0.0,30,0.00,,---,0.00,VWS V14.01,2013-03-02 23:13:00,
2013-03-02 14:14:00,23.0,-3.8,29.98,East,80,0.0,0.0,30,0.00,,---,0.00,VWS V14.01,2013-03-02 23:14:00,
2013-03-02 14:15:00,23.2,-4.3,29.98,East,80,0.0,0.0,29,0.00,,---,0.00,VWS V14.01,2013-03-02 23:15:00,
2013-03-02 14:18:00,23.7,-4.6,29.98,East,80,0.0,2.0,28,0.00,,---,0.00,VWS V14.01,2013-03-02 23:18:00,
2013-03-02 14:19:00,23.7,-4.6,29.98,East,80,0.0,2.0,28,0.00,,---,0.00,VWS V14.01,2013-03-02 23:19:00,
2013-03-02 14:20:00,23.9,-4.4,29.98,East,80,1.0,2.0,28,0.00,,---,0.00,VWS V14.01,2013-03-02 23:20:00,
2013-03-02 14:24:00,24.4,-5.6,29.99,East,80,0.0,2.0,26,0.00,,---,0.00,VWS V14.01,2013-03-02 23:24:00,
2013-03-02 14:25:00,24.5,-5.5,29.98,East,80,0.0,4.0,26,0.00,,---,0.00,VWS V14.01,2013-03-02 23:25:00,
2013-03-02 14:26:00,24.5,-5.5,29.98,East,80,3.0,4.0,26,0.00,,---,0.00,VWS V14.01,2013-03-02 23:26:00,
2013-03-02 14:29:00,24.7,-5.3,29.98,NNW,339,3.0,6.0,26,0.00,,---,0.00,VWS V14.01,2013-03-02 23:29:00,
2013-03-02 14:30:00,24.7,-5.3,29.98,NW,323,5.0,6.0,26,0.00,,---,0.00,VWS V14.01,2013-03-02 23:30:00,
2013-03-02 14:31:00,24.7,-5.3,29.98,WNW,290,6.0,7.0,26,0.00,,---,0.00,VWS V14.01,2013-03-02 23:31:00,
2013-03-02 14:34:00,24.7,-5.3,29.98,North,10,3.0,6.0,26,0.00,,---,0.00,VWS V14.01,2013-03-02 23:34:00,
2013-03-02 14:35:00,24.6,-4.6,29.98,North,5,2.0,6.0,27,0.00,,---,0.00,VWS V14.01,2013-03-02 23:35:00,
2013-03-02 14:36:00,24.6,-4.6,29.98,North,355,3.0,6.0,27,0.00,,---,0.00,VWS V14.01,2013-03-02 23:36:00,
2013-03-02 14:39:00,24.6,-5.4,29.98,North,9,3.0,4.0,26,0.00,,---,0.00,VWS V14.01,2013-03-02 23:39:00,
2013-03-02 14:40:00,24.5,-5.5,29.98,NNE,21,5.0,6.0,26,0.00,,---,0.00,VWS V14.01,2013-03-02 23:40:00,
2013-03-02 14:41:00,24.5,-4.7,29.98,North,360,7.0,8.0,27,0.00,,---,0.00,VWS V14.01,2013-03-02 23:41:00,
2013-03-02 14:44:00,24.2,-5.7,29.98,North,5,10.0,14.0,26,0.00,,---,0.00,VWS V14.01,2013-03-02 23:44:00,
2013-03-02 14:45:00,24.0,-6.7,29.97,NNW,347,10.0,15.0,25,0.00,,---,0.00,VWS V14.01,2013-03-02 23:45:00,
2013-03-02 14:47:00,23.9,-6.0,29.98,North,5,6.0,7.0,26,0.00,,---,0.00,VWS V14.01,2013-03-02 23:47:00,
2013-03-02 14:49:00,23.6,-5.5,29.98,North,355,7.0,14.0,27,0.00,,---,0.00,VWS V14.01,2013-03-02 23:49:00,
2013-03-02 14:50:00,23.6,-5.5,29.98,North,355,9.0,14.0,27,0.00,,---,0.00,VWS V14.01,2013-03-02 23:50:00,
2013-03-02 14:52:00,23.3,-5.7,29.98,North,355,10.0,10.0,27,0.00,,---,0.00,VWS V14.01,2013-03-02 23:52:00,
2013-03-02 14:55:00,23.1,-5.2,29.98,North,360,7.0,13.0,28,0.00,,---,0.00,VWS V14.01,2013-03-02 23:55:00,
2013-03-02 14:57:00,23.0,-6.0,29.98,North,355,8.0,9.0,27,0.00,,---,0.00,VWS V14.01,2013-03-02 23:57:00,
2013-03-02 15:00:00,23.0,-4.5,29.98,North,355,5.0,13.0,29,0.00,,---,0.00,VWS V14.01,2013-03-03 00:00:00,
2013-03-02 15:02:00,22.9,-5.3,29.97,NNW,343,9.0,11.0,28,0.00,,---,0.00,VWS V14.01,2013-03-03 00:02:00,
2013-03-02 15:05:00,22.7,-5.5,29.97,NNW,343,11.0,15.0,28,0.00,,---,0.00,VWS V14.01,2013-03-03 00:05:00,
2013-03-02 15:06:00,22.7,-4.8,29.97,North,10,8.0,15.0,29,0.00,,---,0.00,VWS V14.01,2013-03-03 00:06:00,
2013-03-02 15:07:00,22.7,-4.8,29.97,NNW,339,10.0,12.0,29,0.00,,---,0.00,VWS V14.01,2013-03-03 00:07:00,
2013-03-02 15:10:00,22.7,-4.8,29.97,North,355,7.0,14.0,29,0.00,,---,0.00,VWS V14.01,2013-03-03 00:10:00,
2013-03-02 15:11:00,22.8,-4.0,29.97,North,355,9.0,14.0,30,0.00,,---,0.00,VWS V14.01,2013-03-03 00:11:00,
2013-03-02 15:12:00,22.8,-4.0,29.97,North,360,9.0,10.0,30,0.00,,---,0.00,VWS V14.01,2013-03-03 00:12:00,
2013-03-02 15:15:00,22.9,-2.5,29.97,North,355,7.0,13.0,32,0.00,,---,0.00,VWS V14.01,2013-03-03 00:15:00,
2013-03-02 15:16:00,22.9,-2.5,29.97,North,350,11.0,13.0,32,0.00,,---,0.00,VWS V14.01,2013-03-03 00:16:00,
2013-03-02 15:17:00,23.0,-2.5,29.97,North,350,8.0,11.0,32,0.00,,---,0.00,VWS V14.01,2013-03-03 00:17:00,
2013-03-02 15:21:00,23.0,-1.2,29.96,North,360,8.0,13.0,34,0.00,,---,0.00,VWS V14.01,2013-03-03 00:21:00,
2013-03-02 15:23:00,22.9,-1.9,29.96,North,360,11.0,14.0,33,0.00,,---,0.00,VWS V14.01,2013-03-03 00:23:00,
2013-03-02 15:26:00,22.8,-0.7,29.96,NNW,348,8.0,14.0,35,0.00,,---,0.00,VWS V14.01,2013-03-03 00:26:00,
2013-03-02 15:28:00,22.7,-0.8,29.96,NNW,344,8.0,11.0,35,0.00,,---,0.00,VWS V14.01,2013-03-03 00:28:00,
2013-03-02 15:31:00,22.7,-0.2,29.97,NNW,348,5.0,11.0,36,0.00,,---,0.00,VWS V14.01,2013-03-03 00:31:00,
2013-03-02 15:32:00,22.7,-0.2,29.97,NNW,344,4.0,11.0,36,0.00,,---,0.00,VWS V14.01,2013-03-03 00:32:00,
2013-03-02 15:33:00,22.7,-0.2,29.97,NNW,342,5.0,8.0,36,0.00,,---,0.00,VWS V14.01,2013-03-03 00:33:00,
2013-03-02 15:36:00,22.8,-0.1,29.97,North,360,5.0,10.0,36,0.00,,---,0.00,VWS V14.01,2013-03-03 00:36:00,
2013-03-02 15:37:00,22.8,-0.1,29.97,NNW,342,5.0,10.0,36,0.00,,---,0.00,VWS V14.01,2013-03-03 00:37:00,
2013-03-02 15:38:00,22.9,-0.1,29.97,North,355,7.0,10.0,36,0.00,,---,0.00,VWS V14.01,2013-03-03 00:38:00,
2013-03-02 15:41:00,22.7,-1.4,29.97,NNW,341,5.0,12.0,34,0.00,,---,0.00,VWS V14.01,2013-03-03 00:41:00,
2013-03-02 15:42:00,22.7,-1.4,29.97,NNW,341,5.0,12.0,34,0.00,,---,0.00,VWS V14.01,2013-03-03 00:42:00,
2013-03-02 15:43:00,22.6,-1.5,29.97,NNW,333,9.0,9.0,34,0.00,,---,0.00,VWS V14.01,2013-03-03 00:43:00,
2013-03-02 15:47:00,22.4,-2.3,29.97,NNW,342,8.0,10.0,33,0.00,,---,0.00,VWS V14.01,2013-03-03 00:47:00,
2013-03-02 15:48:00,22.4,-1.7,29.97,NNW,336,4.0,8.0,34,0.00,,---,0.00,VWS V14.01,2013-03-03 00:48:00,
2013-03-02 15:52:00,22.5,-1.0,29.97,NNW,347,0.0,3.0,35,0.00,,---,0.00,VWS V14.01,2013-03-03 00:52:00,
2013-03-02 15:53:00,22.6,-0.9,29.97,North,350,5.0,6.0,35,0.00,,---,0.00,VWS V14.01,2013-03-03 00:53:00,
2013-03-02 15:57:00,22.6,-0.9,29.97,North,360,9.0,9.0,35,0.00,,---,0.00,VWS V14.01,2013-03-03 00:57:00,
2013-03-02 15:58:00,22.5,-1.0,29.97,NNW,338,8.0,10.0,35,0.00,,---,0.00,VWS V14.01,2013-03-03 00:58:00,
2013-03-02 15:59:00,22.5,-1.6,29.97,NNW,348,10.0,10.0,34,0.00,,---,0.00,VWS V14.01,2013-03-03 00:59:00,
2013-03-02 16:02:00,22.3,-2.4,29.97,North,360,5.0,8.0,33,0.00,,---,0.00,VWS V14.01,2013-03-03 01:02:00,
2013-03-02 16:03:00,22.3,-2.4,29.97,North,355,7.0,8.0,33,0.00,,---,0.00,VWS V14.01,2013-03-03 01:03:00,
2013-03-02 16:04:00,22.3,-1.8,29.97,North,360,8.0,9.0,34,0.00,,---,0.00,VWS V14.01,2013-03-03 01:04:00,
2013-03-02 16:08:00,22.5,-1.6,29.97,North,5,5.0,8.0,34,0.00,,---,0.00,VWS V14.01,2013-03-03 01:08:00,
2013-03-02 16:09:00,22.5,-1.6,29.97,North,351,8.0,10.0,34,0.00,,---,0.00,VWS V14.01,2013-03-03 01:09:00,
2013-03-02 16:13:00,22.6,-2.2,29.97,North,355,6.0,10.0,33,0.00,,---,0.00,VWS V14.01,2013-03-03 01:13:00,
2013-03-02 16:14:00,22.6,-1.5,29.97,North,351,7.0,10.0,34,0.00,,---,0.00,VWS V14.01,2013-03-03 01:14:00,
2013-03-02 16:18:00,22.6,-2.2,29.97,North,350,9.0,11.0,33,0.00,,---,0.00,VWS V14.01,2013-03-03 01:18:00,
2013-03-02 16:19:00,22.5,-1.6,29.97,North,355,10.0,11.0,34,0.00,,---,0.00,VWS V14.01,2013-03-03 01:19:00,
2013-03-02 16:23:00,22.5,-1.0,29.97,North,351,9.0,14.0,35,0.00,,---,0.00,VWS V14.01,2013-03-03 01:23:00,
2013-03-02 16:24:00,22.4,-1.7,29.97,NNW,346,10.0,14.0,34,0.00,,---,0.00,VWS V14.01,2013-03-03 01:24:00,
2013-03-02 16:25:00,22.2,-2.5,29.97,NNW,341,6.0,14.0,33,0.00,,---,0.00,VWS V14.01,2013-03-03 01:25:00,
2013-03-02 16:29:00,21.9,-2.8,29.97,NNW,344,11.0,13.0,33,0.00,,---,0.00,VWS V14.01,2013-03-03 01:29:00,
2013-03-02 16:30:00,21.9,-2.2,29.97,North,11,9.0,13.0,34,0.00,,---,0.00,VWS V14.01,2013-03-03 01:30:00,
2013-03-02 16:34:00,21.7,-1.7,29.97,North,355,10.0,12.0,35,0.00,,---,0.00,VWS V14.01,2013-03-03 01:34:00,
2013-03-02 16:35:00,21.8,-1.6,29.97,North,355,7.0,13.0,35,0.00,,---,0.00,VWS V14.01,2013-03-03 01:35:00,
2013-03-02 16:39:00,21.8,-1.6,29.97,North,355,7.0,11.0,35,0.00,,---,0.00,VWS V14.01,2013-03-03 01:39:00,
2013-03-02 16:40:00,21.9,-0.9,29.97,NNW,333,12.0,13.0,36,0.00,,---,0.00,VWS V14.01,2013-03-03 01:40:00,
2013-03-02 16:44:00,22.1,-0.8,29.97,North,360,8.0,11.0,36,0.00,,---,0.00,VWS V14.01,2013-03-03 01:44:00,
2013-03-02 16:45:00,22.1,-1.4,29.97,NNW,348,8.0,11.0,35,0.00,,---,0.00,VWS V14.01,2013-03-03 01:45:00,
2013-03-02 16:49:00,22.4,0.1,29.97,North,360,4.0,12.0,37,0.00,,---,0.00,VWS V14.01,2013-03-03 01:49:00,
2013-03-02 16:50:00,22.4,0.1,29.96,North,355,7.0,12.0,37,0.00,,---,0.00,VWS V14.01,2013-03-03 01:50:00,
2013-03-02 16:54:00,22.6,-0.3,29.97,North,355,9.0,13.0,36,0.00,,---,0.00,VWS V14.01,2013-03-03 01:54:00,
2013-03-02 16:55:00,22.6,-0.3,29.97,North,5,8.0,13.0,36,0.00,,---,0.00,VWS V14.01,2013-03-03 01:55:00,
2013-03-02 17:00:00,22.4,-1.7,29.97,North,355,7.0,13.0,34,0.00,,---,0.00,VWS V14.01,2013-03-03 02:00:00,
2013-03-02 17:05:00,22.1,-1.4,29.97,NNW,344,9.0,10.0,35,0.00,,---,0.00,VWS V14.01,2013-03-03 02:05:00,
2013-03-02 17:10:00,21.8,-1.6,29.97,North,355,8.0,11.0,35,0.00,,---,0.00,VWS V14.01,2013-03-03 02:10:00,
2013-03-02 17:12:00,21.7,-1.7,29.96,NNW,342,7.0,11.0,35,0.00,,---,0.00,VWS V14.01,2013-03-03 02:12:00,
2013-03-02 17:15:00,21.5,-1.3,29.96,North,5,7.0,14.0,36,0.00,,---,0.00,VWS V14.01,2013-03-03 02:15:00,
2013-03-02 17:16:00,21.4,-1.4,29.96,NNE,13,10.0,14.0,36,0.00,,---,0.00,VWS V14.01,2013-03-03 02:16:00,
2013-03-02 17:17:00,21.4,-1.4,29.96,NW,326,7.0,8.0,36,0.00,,---,0.00,VWS V14.01,2013-03-03 02:17:00,
2013-03-02 17:20:00,21.1,-0.5,29.96,NNW,341,7.0,12.0,38,0.00,,---,0.00,VWS V14.01,2013-03-03 02:20:00,
2013-03-02 17:21:00,21.1,-0.5,29.96,NNE,13,6.0,12.0,38,0.00,,---,0.00,VWS V14.01,2013-03-03 02:21:00,
2013-03-02 17:22:00,20.9,-0.2,29.96,NNW,339,10.0,11.0,39,0.00,,---,0.00,VWS V14.01,2013-03-03 02:22:00,
2013-03-02 17:26:00,20.9,0.4,29.96,North,360,7.0,12.0,40,0.00,,---,0.00,VWS V14.01,2013-03-03 02:26:00,
2013-03-02 17:27:00,20.9,0.9,29.96,NW,323,11.0,14.0,41,0.00,,---,0.00,VWS V14.01,2013-03-03 02:27:00,
2013-03-02 17:31:00,21.1,1.1,29.96,NNW,340,4.0,14.0,41,0.00,,---,0.00,VWS V14.01,2013-03-03 02:31:00,
2013-03-02 17:32:00,21.1,1.6,29.95,NNW,339,5.0,6.0,42,0.00,,---,0.00,VWS V14.01,2013-03-03 02:32:00,
2013-03-02 17:36:00,21.1,2.1,29.95,NNW,338,7.0,13.0,43,0.00,,---,0.00,VWS V14.01,2013-03-03 02:36:00,
2013-03-02 17:37:00,21.1,1.6,29.95,NW,323,11.0,11.0,42,0.00,,---,0.00,VWS V14.01,2013-03-03 02:37:00,
2013-03-02 17:38:00,21.1,1.6,29.95,NNW,348,8.0,11.0,42,0.00,,---,0.00,VWS V14.01,2013-03-03 02:38:00,
2013-03-02 17:41:00,21.0,1.5,29.95,NNW,333,4.0,12.0,42,0.00,,---,0.00,VWS V14.01,2013-03-03 02:41:00,
2013-03-02 17:42:00,20.9,1.4,29.95,North,355,9.0,9.0,42,0.00,,---,0.00,VWS V14.01,2013-03-03 02:42:00,
2013-03-02 17:43:00,20.8,1.3,29.94,North,5,11.0,12.0,42,0.00,,---,0.00,VWS V14.01,2013-03-03 02:43:00,
2013-03-02 17:46:00,19.4,0.1,29.94,North,355,7.0,12.0,42,0.00,,---,0.00,VWS V14.01,2013-03-03 02:46:00,
2013-03-02 17:47:00,19.5,0.2,29.94,NNW,327,4.0,6.0,42,0.00,,---,0.00,VWS V14.01,2013-03-03 02:47:00,
2013-03-02 17:48:00,19.6,-0.3,29.94,NNW,329,7.0,9.0,41,0.00,,---,0.00,VWS V14.01,2013-03-03 02:48:00,
2013-03-02 17:52:00,18.9,-0.9,29.94,NW,320,4.0,9.0,41,0.00,,---,0.00,VWS V14.01,2013-03-03 02:52:00,
2013-03-02 17:53:00,18.5,-0.8,29.94,NNW,332,8.0,12.0,42,0.00,,---,0.00,VWS V14.01,2013-03-03 02:53:00,
2013-03-02 17:57:00,18.0,-0.7,29.94,North,355,5.0,7.0,43,0.00,,---,0.00,VWS V14.01,2013-03-03 02:57:00,
2013-03-02 17:58:00,17.9,-0.8,29.94,North,9,6.0,11.0,43,0.00,,---,0.00,VWS V14.01,2013-03-03 02:58:00,
2013-03-02 18:02:00,17.5,-0.7,29.94,NW,315,7.0,7.0,44,0.00,,---,0.00,VWS V14.01,2013-03-03 03:02:00,
2013-03-02 18:03:00,17.5,-0.7,29.95,NW,311,5.0,10.0,44,0.00,,---,0.00,VWS V14.01,2013-03-03 03:03:00,
2013-03-02 18:07:00,17.4,-0.3,29.94,NW,315,6.0,9.0,45,0.00,,---,0.00,VWS V14.01,2013-03-03 03:07:00,
2013-03-02 18:08:00,17.4,-0.3,29.95,NNW,338,4.0,12.0,45,0.00,,---,0.00,VWS V14.01,2013-03-03 03:08:00,
2013-03-02 18:09:00,17.5,-0.2,29.95,NW,304,6.0,12.0,45,0.00,,---,0.00,VWS V14.01,2013-03-03 03:09:00,
2013-03-02 18:12:00,17.6,-0.1,29.94,North,9,5.0,11.0,45,0.00,,---,0.00,VWS V14.01,2013-03-03 03:12:00,
2013-03-02 18:13:00,17.6,-0.1,29.95,NNE,15,3.0,11.0,45,0.00,,---,0.00,VWS V14.01,2013-03-03 03:13:00,
2013-03-02 18:14:00,17.7,0.0,29.94,North,5,4.0,11.0,45,0.00,,---,0.00,VWS V14.01,2013-03-03 03:14:00,
2013-03-02 18:18:00,17.9,0.2,29.95,NNE,25,4.0,6.0,45,0.00,,---,0.00,VWS V14.01,2013-03-03 03:18:00,
2013-03-02 18:19:00,17.9,-0.3,29.95,NNW,339,6.0,9.0,44,0.00,,---,0.00,VWS V14.01,2013-03-03 03:19:00,
2013-03-02 18:23:00,17.9,1.1,29.95,NNW,348,0.0,4.0,47,0.00,,---,0.00,VWS V14.01,2013-03-03 03:23:00,
2013-03-02 18:24:00,17.8,1.5,29.95,NNW,347,0.0,4.0,48,0.00,,---,0.00,VWS V14.01,2013-03-03 03:24:00,
2013-03-02 18:28:00,18.0,1.2,29.95,NNW,333,4.0,7.0,47,0.00,,---,0.00,VWS V14.01,2013-03-03 03:28:00,
2013-03-02 18:29:00,18.1,1.3,29.95,West,273,2.0,7.0,47,0.00,,---,0.00,VWS V14.01,2013-03-03 03:29:00,
2013-03-02 18:33:00,18.3,1.5,29.95,North,355,4.0,5.0,47,0.00,,---,0.00,VWS V14.01,2013-03-03 03:33:00,
2013-03-02 18:34:00,18.4,1.5,29.95,NNW,342,3.0,5.0,47,0.00,,---,0.00,VWS V14.01,2013-03-03 03:34:00,
2013-03-02 18:38:00,18.6,1.7,29.95,NNW,342,0.0,3.0,47,0.00,,---,0.00,VWS V14.01,2013-03-03 03:38:00,
2013-03-02 18:39:00,18.6,1.7,29.95,NNW,342,0.0,3.0,47,0.00,,---,0.00,VWS V14.01,2013-03-03 03:39:00,
2013-03-02 18:44:00,18.6,1.7,29.95,NNW,342,0.0,2.0,47,0.00,,---,0.00,VWS V14.01,2013-03-03 03:44:00,
2013-03-02 18:49:00,18.7,2.3,29.95,NNW,340,0.0,0.0,48,0.00,,---,0.00,VWS V14.01,2013-03-03 03:49:00,
2013-03-02 18:54:00,18.6,2.6,29.96,NNW,340,0.0,0.0,49,0.00,,---,0.00,VWS V14.01,2013-03-03 03:54:00,
2013-03-02 18:55:00,18.5,2.5,29.96,NNW,340,0.0,0.0,49,0.00,,---,0.00,VWS V14.01,2013-03-03 03:55:00,
2013-03-02 18:59:00,18.2,2.3,29.96,NNW,340,0.0,2.0,49,0.00,,---,0.00,VWS V14.01,2013-03-03 03:59:00,
2013-03-02 19:00:00,18.2,2.3,29.95,NNW,340,0.0,2.0,49,0.00,,---,0.00,VWS V14.01,2013-03-03 04:00:00,
2013-03-02 19:04:00,18.2,2.3,29.95,West,271,0.0,6.0,49,0.00,,---,0.00,VWS V14.01,2013-03-03 04:04:00,
2013-03-02 19:05:00,18.2,2.3,29.95,West,271,0.0,6.0,49,0.00,,---,0.00,VWS V14.01,2013-03-03 04:05:00,
2013-03-02 19:10:00,17.9,2.8,29.95,NW,323,3.0,4.0,51,0.00,,---,0.00,VWS V14.01,2013-03-03 04:10:00,
2013-03-02 19:15:00,17.4,2.8,29.95,NW,323,0.0,0.0,52,0.00,,---,0.00,VWS V14.01,2013-03-03 04:15:00,
2013-03-02 19:20:00,16.9,2.3,29.95,NNW,347,3.0,3.0,52,0.00,,---,0.00,VWS V14.01,2013-03-03 04:20:00,
2013-03-02 19:21:00,16.9,2.3,29.95,NNE,32,3.0,5.0,52,0.00,,---,0.00,VWS V14.01,2013-03-03 04:21:00,
2013-03-02 19:25:00,17.3,2.3,29.95,NNE,32,0.0,5.0,51,0.00,,---,0.00,VWS V14.01,2013-03-03 04:25:00,
2013-03-02 19:26:00,17.3,2.3,29.95,NNE,32,3.0,5.0,51,0.00,,---,0.00,VWS V14.01,2013-03-03 04:26:00,
2013-03-02 19:30:00,17.5,2.5,29.95,North,9,4.0,11.0,51,0.00,,---,0.00,VWS V14.01,2013-03-03 04:30:00,
2013-03-02 19:31:00,17.5,2.5,29.95,North,9,5.0,11.0,51,0.00,,---,0.00,VWS V14.01,2013-03-03 04:31:00,
2013-03-02 19:36:00,17.6,3.4,29.95,West,267,3.0,8.0,53,0.00,,---,0.00,VWS V14.01,2013-03-03 04:36:00,
2013-03-02 19:41:00,17.2,3.0,29.94,NNE,15,4.0,5.0,53,0.00,,---,0.00,VWS V14.01,2013-03-03 04:41:00,
2013-03-02 19:46:00,17.3,2.7,29.94,NW,314,0.0,5.0,52,0.00,,---,0.00,VWS V14.01,2013-03-03 04:46:00,
2013-03-02 19:47:00,17.3,2.7,29.95,NW,314,0.0,0.0,52,0.00,,---,0.00,VWS V14.01,2013-03-03 04:47:00,
2013-03-02 19:51:00,16.9,2.3,29.95,WSW,258,5.0,5.0,52,0.00,,---,0.00,VWS V14.01,2013-03-03 04:51:00,
2013-03-02 19:52:00,16.9,2.3,29.95,West,266,5.0,5.0,52,0.00,,---,0.00,VWS V14.01,2013-03-03 04:52:00,
2013-03-02 19:56:00,17.1,2.9,29.95,NW,319,3.0,6.0,53,0.00,,---,0.00,VWS V14.01,2013-03-03 04:56:00,
2013-03-02 19:57:00,17.1,2.9,29.95,NW,319,3.0,3.0,53,0.00,,---,0.00,VWS V14.01,2013-03-03 04:57:00,
2013-03-02 20:00:00,17.0,2.4,29.95,NW,319,4.0,4.0,52,0.00,,---,0.00,VWS V14.01,2013-03-03 05:00:00,
2013-03-02 20:05:00,17.3,2.3,29.95,NW,315,0.0,0.0,51,0.00,,---,0.00,VWS V14.01,2013-03-03 05:05:00,
2013-03-02 20:10:00,17.1,2.1,29.95,NW,315,0.0,2.0,51,0.00,,---,0.00,VWS V14.01,2013-03-03 05:10:00,
2013-03-02 20:11:00,17.1,2.1,29.95,NW,315,0.0,2.0,51,0.00,,---,0.00,VWS V14.01,2013-03-03 05:11:00,
2013-03-02 20:15:00,17.0,2.0,29.95,North,5,4.0,6.0,51,0.00,,---,0.00,VWS V14.01,2013-03-03 05:15:00,
2013-03-02 20:16:00,17.2,2.2,29.95,North,5,4.0,6.0,51,0.00,,---,0.00,VWS V14.01,2013-03-03 05:16:00,
2013-03-02 20:20:00,18.2,3.1,29.95,North,11,8.0,10.0,51,0.00,,---,0.00,VWS V14.01,2013-03-03 05:20:00,
2013-03-02 20:21:00,18.3,2.8,29.95,North,10,6.0,10.0,50,0.00,,---,0.00,VWS V14.01,2013-03-03 05:21:00,
2013-03-02 20:25:00,19.0,3.0,29.95,North,9,2.0,9.0,49,0.00,,---,0.00,VWS V14.01,2013-03-03 05:25:00,
2013-03-02 20:26:00,19.1,3.1,29.95,North,9,6.0,9.0,49,0.00,,---,0.00,VWS V14.01,2013-03-03 05:26:00,
2013-03-02 20:30:00,19.3,3.3,29.95,North,5,6.0,7.0,49,0.00,,---,0.00,VWS V14.01,2013-03-03 05:30:00,
2013-03-02 20:31:00,19.4,3.4,29.96,North,5,4.0,7.0,49,0.00,,---,0.00,VWS V14.01,2013-03-03 05:31:00,
2013-03-02 20:36:00,19.5,3.0,29.95,North,350,3.0,9.0,48,0.00,,---,0.00,VWS V14.01,2013-03-03 05:36:00,
2013-03-02 20:41:00,19.8,3.3,29.96,North,5,0.0,7.0,48,0.00,,---,0.00,VWS V14.01,2013-03-03 05:41:00,
2013-03-02 20:42:00,19.8,3.3,29.96,North,5,0.0,7.0,48,0.00,,---,0.00,VWS V14.01,2013-03-03 05:42:00,
2013-03-02 20:46:00,19.5,3.5,29.96,North,5,0.0,2.0,49,0.00,,---,0.00,VWS V14.01,2013-03-03 05:46:00,
2013-03-02 20:47:00,19.5,3.5,29.96,North,5,0.0,2.0,49,0.00,,---,0.00,VWS V14.01,2013-03-03 05:47:00,
2013-03-02 20:51:00,19.3,3.7,29.96,North,5,0.0,3.0,50,0.00,,---,0.00,VWS V14.01,2013-03-03 05:51:00,
2013-03-02 20:52:00,19.3,3.7,29.96,North,5,0.0,0.0,50,0.00,,---,0.00,VWS V14.01,2013-03-03 05:52:00,
2013-03-02 20:56:00,18.8,3.7,29.96,North,5,0.0,0.0,51,0.00,,---,0.00,VWS V14.01,2013-03-03 05:56:00,
2013-03-02 20:57:00,18.7,3.6,29.96,North,5,0.0,0.0,51,0.00,,---,0.00,VWS V14.01,2013-03-03 05:57:00,
2013-03-02 21:02:00,17.7,2.7,29.97,North,5,0.0,3.0,51,0.00,,---,0.00,VWS V14.01,2013-03-03 06:02:00,
2013-03-02 21:07:00,15.7,2.0,29.96,ENE,75,0.0,0.0,54,0.00,,---,0.00,VWS V14.01,2013-03-03 06:07:00,
2013-03-02 21:12:00,14.3,1.9,29.96,ENE,75,0.0,0.0,57,0.00,,---,0.00,VWS V14.01,2013-03-03 06:12:00,
2013-03-02 21:17:00,13.5,1.9,29.97,ENE,75,0.0,0.0,59,0.00,,---,0.00,VWS V14.01,2013-03-03 06:17:00,
2013-03-02 21:22:00,13.2,1.9,29.97,ENE,75,0.0,0.0,60,0.00,,---,0.00,VWS V14.01,2013-03-03 06:22:00,
2013-03-02 21:23:00,13.3,2.0,29.97,ENE,75,0.0,0.0,60,0.00,,---,0.00,VWS V14.01,2013-03-03 06:23:00,
2013-03-02 21:27:00,13.7,2.4,29.97,ENE,75,0.0,0.0,60,0.00,,---,0.00,VWS V14.01,2013-03-03 06:27:00,
2013-03-02 21:28:00,13.8,2.5,29.97,ENE,75,0.0,0.0,60,0.00,,---,0.00,VWS V14.01,2013-03-03 06:28:00,
2013-03-02 21:33:00,13.6,2.0,29.97,ENE,75,0.0,0.0,59,0.00,,---,0.00,VWS V14.01,2013-03-03 06:33:00,
2013-03-02 21:38:00,13.0,2.1,29.97,ENE,75,0.0,1.0,61,0.00,,---,0.00,VWS V14.01,2013-03-03 06:38:00,
2013-03-02 21:43:00,12.3,1.8,29.98,ENE,75,0.0,0.0,62,0.00,,---,0.00,VWS V14.01,2013-03-03 06:43:00,
2013-03-02 21:48:00,12.3,2.1,29.98,ENE,75,0.0,2.0,63,0.00,,---,0.00,VWS V14.01,2013-03-03 06:48:00,
2013-03-02 21:53:00,11.6,1.5,29.98,ENE,75,0.0,0.0,63,0.00,,---,0.00,VWS V14.01,2013-03-03 06:53:00,
2013-03-02 21:54:00,11.4,1.3,29.98,ENE,75,0.0,0.0,63,0.00,,---,0.00,VWS V14.01,2013-03-03 06:54:00,
2013-03-02 21:58:00,11.0,1.5,29.98,ENE,75,0.0,0.0,65,0.00,,---,0.00,VWS V14.01,2013-03-03 06:58:00,
2013-03-02 21:59:00,11.0,1.5,29.98,ENE,75,0.0,0.0,65,0.00,,---,0.00,VWS V14.01,2013-03-03 06:59:00,
2013-03-02 22:04:00,11.1,1.6,29.97,ENE,75,0.0,0.0,65,0.00,,---,0.00,VWS V14.01,2013-03-03 07:04:00,
2013-03-02 22:09:00,11.6,2.5,29.97,NE,43,5.0,5.0,66,0.00,,---,0.00,VWS V14.01,2013-03-03 07:09:00,
2013-03-02 22:14:00,12.6,2.8,29.97,NNE,33,0.0,5.0,64,0.00,,---,0.00,VWS V14.01,2013-03-03 07:14:00,
2013-03-02 22:15:00,12.7,2.8,29.96,NNE,33,3.0,5.0,64,0.00,,---,0.00,VWS V14.01,2013-03-03 07:15:00,
2013-03-02 22:19:00,12.7,2.5,29.97,NNE,33,0.0,3.0,63,0.00,,---,0.00,VWS V14.01,2013-03-03 07:19:00,
2013-03-02 22:20:00,12.6,2.4,29.97,NNE,33,0.0,3.0,63,0.00,,---,0.00,VWS V14.01,2013-03-03 07:20:00,
2013-03-02 22:24:00,12.3,1.8,29.97,NNE,33,1.0,2.0,62,0.00,,---,0.00,VWS V14.01,2013-03-03 07:24:00,
2013-03-02 22:25:00,12.3,2.1,29.97,NNE,33,1.0,2.0,63,0.00,,---,0.00,VWS V14.01,2013-03-03 07:25:00,
2013-03-02 22:26:00,12.2,2.0,29.97,NNE,33,0.0,2.0,63,0.00,,---,0.00,VWS V14.01,2013-03-03 07:26:00,
2013-03-02 22:30:00,11.8,1.6,29.98,NNE,33,2.0,3.0,63,0.00,,---,0.00,VWS V14.01,2013-03-03 07:30:00,
2013-03-02 22:31:00,11.7,1.5,29.98,NNE,33,0.0,3.0,63,0.00,,---,0.00,VWS V14.01,2013-03-03 07:31:00,
2013-03-02 22:35:00,11.6,1.8,29.98,NNE,33,4.0,6.0,64,0.00,,---,0.00,VWS V14.01,2013-03-03 07:35:00,
2013-03-02 22:36:00,11.6,1.8,29.98,NNE,33,2.0,7.0,64,0.00,,---,0.00,VWS V14.01,2013-03-03 07:36:00,
2013-03-02 22:40:00,12.4,2.6,29.99,NE,41,2.0,7.0,64,0.00,,---,0.00,VWS V14.01,2013-03-03 07:40:00,
2013-03-02 22:41:00,12.5,2.3,29.99,NE,41,1.0,7.0,63,0.00,,---,0.00,VWS V14.01,2013-03-03 07:41:00,
2013-03-02 22:45:00,12.5,2.0,29.99,NE,42,0.0,3.0,62,0.00,,---,0.00,VWS V14.01,2013-03-03 07:45:00,
2013-03-02 22:46:00,12.4,1.9,29.99,NE,42,0.0,3.0,62,0.00,,---,0.00,VWS V14.01,2013-03-03 07:46:00,
2013-03-02 22:50:00,12.0,1.5,29.99,NE,42,0.0,0.0,62,0.00,,---,0.00,VWS V14.01,2013-03-03 07:50:00,
2013-03-02 22:51:00,11.9,1.7,29.99,NE,42,0.0,0.0,63,0.00,,---,0.00,VWS V14.01,2013-03-03 07:51:00,
2013-03-02 22:55:00,11.4,1.3,29.99,NE,42,0.0,0.0,63,0.00,,---,0.00,VWS V14.01,2013-03-03 07:55:00,
2013-03-02 22:56:00,11.3,1.2,29.99,NE,42,1.0,2.0,63,0.00,,---,0.00,VWS V14.01,2013-03-03 07:56:00,
2013-03-02 22:57:00,11.1,1.0,29.99,NE,42,0.0,0.0,63,0.00,,---,0.00,VWS V14.01,2013-03-03 07:57:00,
2013-03-02 23:00:00,10.4,0.3,29.99,NE,42,0.0,0.0,63,0.00,,---,0.00,VWS V14.01,2013-03-03 08:00:00,
2013-03-02 23:01:00,10.3,0.2,29.99,NE,42,0.0,0.0,63,0.00,,---,0.00,VWS V14.01,2013-03-03 08:01:00,
2013-03-02 23:02:00,10.3,0.2,29.99,NE,42,2.0,2.0,63,0.00,,---,0.00,VWS V14.01,2013-03-03 08:02:00,
2013-03-02 23:05:00,9.4,0.0,29.99,NE,41,3.0,4.0,65,0.00,,---,0.00,VWS V14.01,2013-03-03 08:05:00,
2013-03-02 23:06:00,9.4,0.3,29.99,NE,41,2.0,4.0,66,0.00,,---,0.00,VWS V14.01,2013-03-03 08:06:00,
2013-03-02 23:07:00,9.2,0.2,29.99,NE,41,1.0,1.0,66,0.00,,---,0.00,VWS V14.01,2013-03-03 08:07:00,
2013-03-02 23:10:00,9.1,0.7,29.99,NE,41,2.0,3.0,68,0.00,,---,0.00,VWS V14.01,2013-03-03 08:10:00,
2013-03-02 23:11:00,9.1,0.7,29.99,NE,41,0.0,3.0,68,0.00,,---,0.00,VWS V14.01,2013-03-03 08:11:00,
2013-03-02 23:12:00,9.2,0.8,29.99,NE,41,0.0,1.0,68,0.00,,---,0.00,VWS V14.01,2013-03-03 08:12:00,
2013-03-02 23:16:00,9.5,1.1,29.99,NE,41,4.0,4.0,68,0.00,,---,0.00,VWS V14.01,2013-03-03 08:16:00,
2013-03-02 23:17:00,9.6,1.2,29.99,NE,41,0.0,1.0,68,0.00,,---,0.00,VWS V14.01,2013-03-03 08:17:00,
2013-03-02 23:21:00,10.0,1.6,29.99,NE,41,0.0,1.0,68,0.00,,---,0.00,VWS V14.01,2013-03-03 08:21:00,
2013-03-02 23:22:00,10.0,1.2,29.99,NE,41,0.0,0.0,67,0.00,,---,0.00,VWS V14.01,2013-03-03 08:22:00,
2013-03-02 23:26:00,10.0,1.2,29.99,NE,41,0.0,0.0,67,0.00,,---,0.00,VWS V14.01,2013-03-03 08:26:00,
2013-03-02 23:27:00,9.9,1.1,29.99,NE,41,0.0,0.0,67,0.00,,---,0.00,VWS V14.01,2013-03-03 08:27:00,
2013-03-02 23:31:00,9.6,0.5,29.99,NE,41,0.0,0.0,66,0.00,,---,0.00,VWS V14.01,2013-03-03 08:31:00,
2013-03-02 23:32:00,9.5,0.4,29.99,NE,41,0.0,0.0,66,0.00,,---,0.00,VWS V14.01,2013-03-03 08:32:00,
2013-03-02 23:33:00,9.4,0.3,29.99,NE,41,0.0,0.0,66,0.00,,---,0.00,VWS V14.01,2013-03-03 08:33:00,
2013-03-02 23:36:00,8.9,0.5,30.00,NE,41,0.0,0.0,68,0.00,,---,0.00,VWS V14.01,2013-03-03 08:36:00,
2013-03-02 23:37:00,8.8,0.4,29.99,NE,41,0.0,0.0,68,0.00,,---,0.00,VWS V14.01,2013-03-03 08:37:00,
2013-03-02 23:38:00,8.7,0.0,29.99,NE,41,0.0,0.0,67,0.00,,---,0.00,VWS V14.01,2013-03-03 08:38:00,
2013-03-02 23:41:00,9.8,0.7,29.99,ENE,73,1.0,1.0,66,0.00,,---,0.00,VWS V14.01,2013-03-03 08:41:00,
2013-03-02 23:42:00,9.9,0.5,29.99,NNE,16,2.0,2.0,65,0.00,,---,0.00,VWS V14.01,2013-03-03 08:42:00,
2013-03-02 23:43:00,9.9,0.5,29.99,NNE,16,2.0,3.0,65,0.00,,---,0.00,VWS V14.01,2013-03-03 08:43:00,
2013-03-02 23:46:00,9.8,0.1,30.00,NE,47,0.0,3.0,64,0.00,,---,0.00,VWS V14.01,2013-03-03 08:46:00,
2013-03-02 23:47:00,9.8,0.1,30.00,NE,47,0.0,0.0,64,0.00,,---,0.00,VWS V14.01,2013-03-03 08:47:00,
2013-03-02 23:48:00,9.7,0.0,30.00,NE,47,0.0,0.0,64,0.00,,---,0.00,VWS V14.01,2013-03-03 08:48:00,
2013-03-02 23:52:00,9.5,0.1,30.00,SE,136,0.0,0.0,65,0.00,,---,0.00,VWS V14.01,2013-03-03 08:52:00,
2013-03-02 23:53:00,9.4,0.0,30.00,SE,142,2.0,2.0,65,0.00,,---,0.00,VWS V14.01,2013-03-03 08:53:00,
2013-03-02 23:57:00,9.4,0.3,30.00,East,82,1.0,2.0,66,0.00,,---,0.00,VWS V14.01,2013-03-03 08:57:00,
2013-03-02 23:58:00,9.3,0.6,30.00,East,83,0.0,2.0,67,0.00,,---,0.00,VWS V14.01,2013-03-03 08:58:00,
2013-03-02 23:59:00,9.3,0.6,29.99,East,83,0.0,2.0,67,0.00,,---,0.00,VWS V14.01,2013-03-03 08:59:00,